<?xml version="1.0" encoding="UTF-8" standalone="no" ?>
<gpx xmlns="http://www.topografix.com/GPX/1/1" xmlns:xsi="http://www.w3.org/2001/XMLSchema-instance" xsi:schemaLocation="http://www.topografix.com/GPX/1/1 http://www.topografix.com/GPX/1/1/gpx.xsd" version="1.1" creator="VisuGPX - https://www.visugpx.com">
  <metadata>
    <name>Gesvrine Grimaudière</name>
    <desc><![CDATA[magnifique sortie avec découverte d'une nature généreuse]]></desc>
  </metadata>
  <trk>
    <name><![CDATA[2017-09-11-02]]></name>
    <trkseg>
      <trkpt lat="47.26658" lon="-1.54772">
        <ele>17</ele>
        <time>2017-09-11T12:14:29Z</time>
      </trkpt>
      <trkpt lat="47.26657" lon="-1.5477">
        <ele>17</ele>
        <time>2017-09-11T12:14:30Z</time>
      </trkpt>
      <trkpt lat="47.2666" lon="-1.54757">
        <ele>17.3</ele>
        <time>2017-09-11T12:14:43Z</time>
      </trkpt>
      <trkpt lat="47.26666" lon="-1.54746">
        <ele>17.7</ele>
        <time>2017-09-11T12:14:52Z</time>
      </trkpt>
      <trkpt lat="47.26671" lon="-1.54734">
        <ele>17.9</ele>
        <time>2017-09-11T12:15:03Z</time>
      </trkpt>
      <trkpt lat="47.26675" lon="-1.54721">
        <ele>18.4</ele>
        <time>2017-09-11T12:15:12Z</time>
      </trkpt>
      <trkpt lat="47.26675" lon="-1.54707">
        <ele>19</ele>
        <time>2017-09-11T12:15:20Z</time>
      </trkpt>
      <trkpt lat="47.26679" lon="-1.54694">
        <ele>19.7</ele>
        <time>2017-09-11T12:15:28Z</time>
      </trkpt>
      <trkpt lat="47.26684" lon="-1.54683">
        <ele>20.1</ele>
        <time>2017-09-11T12:15:36Z</time>
      </trkpt>
      <trkpt lat="47.26692" lon="-1.54674">
        <ele>20.4</ele>
        <time>2017-09-11T12:15:45Z</time>
      </trkpt>
      <trkpt lat="47.26701" lon="-1.54676">
        <ele>20.8</ele>
        <time>2017-09-11T12:15:56Z</time>
      </trkpt>
      <trkpt lat="47.26709" lon="-1.54671">
        <ele>21.4</ele>
        <time>2017-09-11T12:16:11Z</time>
      </trkpt>
      <trkpt lat="47.26715" lon="-1.5466">
        <ele>21.6</ele>
        <time>2017-09-11T12:16:21Z</time>
      </trkpt>
      <trkpt lat="47.26717" lon="-1.54646">
        <ele>22.2</ele>
        <time>2017-09-11T12:16:30Z</time>
      </trkpt>
      <trkpt lat="47.26718" lon="-1.54632">
        <ele>22.7</ele>
        <time>2017-09-11T12:16:39Z</time>
      </trkpt>
      <trkpt lat="47.2672" lon="-1.54619">
        <ele>23</ele>
        <time>2017-09-11T12:16:48Z</time>
      </trkpt>
      <trkpt lat="47.26728" lon="-1.54609">
        <ele>23.3</ele>
        <time>2017-09-11T12:16:58Z</time>
      </trkpt>
      <trkpt lat="47.26735" lon="-1.54601">
        <ele>23.4</ele>
        <time>2017-09-11T12:17:06Z</time>
      </trkpt>
      <trkpt lat="47.26739" lon="-1.54588">
        <ele>23.5</ele>
        <time>2017-09-11T12:17:17Z</time>
      </trkpt>
      <trkpt lat="47.26739" lon="-1.54574">
        <ele>23.5</ele>
        <time>2017-09-11T12:17:25Z</time>
      </trkpt>
      <trkpt lat="47.26742" lon="-1.54561">
        <ele>23.5</ele>
        <time>2017-09-11T12:17:32Z</time>
      </trkpt>
      <trkpt lat="47.26749" lon="-1.54553">
        <ele>23.5</ele>
        <time>2017-09-11T12:17:40Z</time>
      </trkpt>
      <trkpt lat="47.26758" lon="-1.54546">
        <ele>23.7</ele>
        <time>2017-09-11T12:17:48Z</time>
      </trkpt>
      <trkpt lat="47.26766" lon="-1.54542">
        <ele>23.9</ele>
        <time>2017-09-11T12:17:56Z</time>
      </trkpt>
      <trkpt lat="47.26769" lon="-1.54529">
        <ele>23.7</ele>
        <time>2017-09-11T12:18:06Z</time>
      </trkpt>
      <trkpt lat="47.26763" lon="-1.54519">
        <ele>23.5</ele>
        <time>2017-09-11T12:18:15Z</time>
      </trkpt>
      <trkpt lat="47.26759" lon="-1.54507">
        <ele>23.4</ele>
        <time>2017-09-11T12:18:23Z</time>
      </trkpt>
      <trkpt lat="47.26754" lon="-1.54495">
        <ele>23.2</ele>
        <time>2017-09-11T12:18:31Z</time>
      </trkpt>
      <trkpt lat="47.26748" lon="-1.54485">
        <ele>23.1</ele>
        <time>2017-09-11T12:18:40Z</time>
      </trkpt>
      <trkpt lat="47.26741" lon="-1.54476">
        <ele>22.8</ele>
        <time>2017-09-11T12:18:49Z</time>
      </trkpt>
      <trkpt lat="47.26732" lon="-1.5447">
        <ele>22.5</ele>
        <time>2017-09-11T12:18:58Z</time>
      </trkpt>
      <trkpt lat="47.26722" lon="-1.54466">
        <ele>22.2</ele>
        <time>2017-09-11T12:19:06Z</time>
      </trkpt>
      <trkpt lat="47.26713" lon="-1.54462">
        <ele>21.8</ele>
        <time>2017-09-11T12:19:14Z</time>
      </trkpt>
      <trkpt lat="47.26703" lon="-1.54461">
        <ele>21.6</ele>
        <time>2017-09-11T12:19:22Z</time>
      </trkpt>
      <trkpt lat="47.26693" lon="-1.54459">
        <ele>21.2</ele>
        <time>2017-09-11T12:19:31Z</time>
      </trkpt>
      <trkpt lat="47.26683" lon="-1.54456">
        <ele>20.6</ele>
        <time>2017-09-11T12:19:39Z</time>
      </trkpt>
      <trkpt lat="47.26673" lon="-1.54455">
        <ele>20.3</ele>
        <time>2017-09-11T12:19:47Z</time>
      </trkpt>
      <trkpt lat="47.26663" lon="-1.54454">
        <ele>20.1</ele>
        <time>2017-09-11T12:19:55Z</time>
      </trkpt>
      <trkpt lat="47.26653" lon="-1.54454">
        <ele>19.9</ele>
        <time>2017-09-11T12:20:03Z</time>
      </trkpt>
      <trkpt lat="47.26643" lon="-1.54455">
        <ele>19.7</ele>
        <time>2017-09-11T12:20:11Z</time>
      </trkpt>
      <trkpt lat="47.26634" lon="-1.54457">
        <ele>19.7</ele>
        <time>2017-09-11T12:20:19Z</time>
      </trkpt>
      <trkpt lat="47.26625" lon="-1.5446">
        <ele>19.6</ele>
        <time>2017-09-11T12:20:27Z</time>
      </trkpt>
      <trkpt lat="47.26615" lon="-1.54462">
        <ele>19.5</ele>
        <time>2017-09-11T12:20:35Z</time>
      </trkpt>
      <trkpt lat="47.26606" lon="-1.54464">
        <ele>19.5</ele>
        <time>2017-09-11T12:20:43Z</time>
      </trkpt>
      <trkpt lat="47.26597" lon="-1.54464">
        <ele>19.4</ele>
        <time>2017-09-11T12:20:51Z</time>
      </trkpt>
      <trkpt lat="47.2659" lon="-1.54454">
        <ele>19</ele>
        <time>2017-09-11T12:21:01Z</time>
      </trkpt>
      <trkpt lat="47.26585" lon="-1.54443">
        <ele>18.5</ele>
        <time>2017-09-11T12:21:09Z</time>
      </trkpt>
      <trkpt lat="47.26581" lon="-1.5443">
        <ele>18.7</ele>
        <time>2017-09-11T12:21:17Z</time>
      </trkpt>
      <trkpt lat="47.26579" lon="-1.54416">
        <ele>19</ele>
        <time>2017-09-11T12:21:26Z</time>
      </trkpt>
      <trkpt lat="47.26576" lon="-1.54402">
        <ele>19.1</ele>
        <time>2017-09-11T12:21:34Z</time>
      </trkpt>
      <trkpt lat="47.26579" lon="-1.54389">
        <ele>18.8</ele>
        <time>2017-09-11T12:21:43Z</time>
      </trkpt>
      <trkpt lat="47.26587" lon="-1.5438">
        <ele>18.6</ele>
        <time>2017-09-11T12:21:52Z</time>
      </trkpt>
      <trkpt lat="47.26595" lon="-1.54375">
        <ele>18.2</ele>
        <time>2017-09-11T12:22:00Z</time>
      </trkpt>
      <trkpt lat="47.26605" lon="-1.54372">
        <ele>17.8</ele>
        <time>2017-09-11T12:22:08Z</time>
      </trkpt>
      <trkpt lat="47.26614" lon="-1.5437">
        <ele>17</ele>
        <time>2017-09-11T12:22:17Z</time>
      </trkpt>
      <trkpt lat="47.26624" lon="-1.54367">
        <ele>16.5</ele>
        <time>2017-09-11T12:22:26Z</time>
      </trkpt>
      <trkpt lat="47.26631" lon="-1.54357">
        <ele>16.1</ele>
        <time>2017-09-11T12:22:34Z</time>
      </trkpt>
      <trkpt lat="47.26632" lon="-1.54343">
        <ele>15.8</ele>
        <time>2017-09-11T12:22:43Z</time>
      </trkpt>
      <trkpt lat="47.26629" lon="-1.5433">
        <ele>15.4</ele>
        <time>2017-09-11T12:22:51Z</time>
      </trkpt>
      <trkpt lat="47.26626" lon="-1.54316">
        <ele>14.7</ele>
        <time>2017-09-11T12:22:59Z</time>
      </trkpt>
      <trkpt lat="47.26624" lon="-1.54302">
        <ele>14.1</ele>
        <time>2017-09-11T12:23:07Z</time>
      </trkpt>
      <trkpt lat="47.26622" lon="-1.54288">
        <ele>13.5</ele>
        <time>2017-09-11T12:23:15Z</time>
      </trkpt>
      <trkpt lat="47.26625" lon="-1.54274">
        <ele>13.2</ele>
        <time>2017-09-11T12:23:24Z</time>
      </trkpt>
      <trkpt lat="47.26628" lon="-1.5426">
        <ele>13</ele>
        <time>2017-09-11T12:23:33Z</time>
      </trkpt>
      <trkpt lat="47.26633" lon="-1.54249">
        <ele>12.9</ele>
        <time>2017-09-11T12:23:40Z</time>
      </trkpt>
      <trkpt lat="47.26638" lon="-1.54237">
        <ele>12.7</ele>
        <time>2017-09-11T12:23:48Z</time>
      </trkpt>
      <trkpt lat="47.26644" lon="-1.54228">
        <ele>12.5</ele>
        <time>2017-09-11T12:23:56Z</time>
      </trkpt>
      <trkpt lat="47.2665" lon="-1.54216">
        <ele>12.2</ele>
        <time>2017-09-11T12:24:04Z</time>
      </trkpt>
      <trkpt lat="47.26656" lon="-1.54205">
        <ele>12</ele>
        <time>2017-09-11T12:24:12Z</time>
      </trkpt>
      <trkpt lat="47.26662" lon="-1.54194">
        <ele>11.7</ele>
        <time>2017-09-11T12:24:21Z</time>
      </trkpt>
      <trkpt lat="47.2667" lon="-1.54185">
        <ele>11.4</ele>
        <time>2017-09-11T12:24:31Z</time>
      </trkpt>
      <trkpt lat="47.26678" lon="-1.54177">
        <ele>11.2</ele>
        <time>2017-09-11T12:24:40Z</time>
      </trkpt>
      <trkpt lat="47.26685" lon="-1.54169">
        <ele>11.2</ele>
        <time>2017-09-11T12:24:48Z</time>
      </trkpt>
      <trkpt lat="47.26694" lon="-1.54161">
        <ele>10.8</ele>
        <time>2017-09-11T12:24:56Z</time>
      </trkpt>
      <trkpt lat="47.26702" lon="-1.54153">
        <ele>10.4</ele>
        <time>2017-09-11T12:25:04Z</time>
      </trkpt>
      <trkpt lat="47.2671" lon="-1.54147">
        <ele>10.2</ele>
        <time>2017-09-11T12:25:11Z</time>
      </trkpt>
      <trkpt lat="47.26718" lon="-1.54139">
        <ele>9.9</ele>
        <time>2017-09-11T12:25:19Z</time>
      </trkpt>
      <trkpt lat="47.26726" lon="-1.54131">
        <ele>9.7</ele>
        <time>2017-09-11T12:25:27Z</time>
      </trkpt>
      <trkpt lat="47.26734" lon="-1.54123">
        <ele>9.2</ele>
        <time>2017-09-11T12:25:35Z</time>
      </trkpt>
      <trkpt lat="47.26741" lon="-1.54114">
        <ele>8.9</ele>
        <time>2017-09-11T12:25:43Z</time>
      </trkpt>
      <trkpt lat="47.26749" lon="-1.54107">
        <ele>8.7</ele>
        <time>2017-09-11T12:25:51Z</time>
      </trkpt>
      <trkpt lat="47.26757" lon="-1.54099">
        <ele>8.6</ele>
        <time>2017-09-11T12:25:59Z</time>
      </trkpt>
      <trkpt lat="47.26766" lon="-1.54092">
        <ele>8.1</ele>
        <time>2017-09-11T12:26:07Z</time>
      </trkpt>
      <trkpt lat="47.26773" lon="-1.54082">
        <ele>7.7</ele>
        <time>2017-09-11T12:26:16Z</time>
      </trkpt>
      <trkpt lat="47.26781" lon="-1.54074">
        <ele>7.4</ele>
        <time>2017-09-11T12:26:24Z</time>
      </trkpt>
      <trkpt lat="47.26789" lon="-1.54066">
        <ele>7.1</ele>
        <time>2017-09-11T12:26:31Z</time>
      </trkpt>
      <trkpt lat="47.26797" lon="-1.54056">
        <ele>6.8</ele>
        <time>2017-09-11T12:26:40Z</time>
      </trkpt>
      <trkpt lat="47.26804" lon="-1.54049">
        <ele>6.5</ele>
        <time>2017-09-11T12:26:47Z</time>
      </trkpt>
      <trkpt lat="47.26813" lon="-1.54041">
        <ele>6.1</ele>
        <time>2017-09-11T12:26:55Z</time>
      </trkpt>
      <trkpt lat="47.26821" lon="-1.54034">
        <ele>5.9</ele>
        <time>2017-09-11T12:27:02Z</time>
      </trkpt>
      <trkpt lat="47.2683" lon="-1.54026">
        <ele>5.7</ele>
        <time>2017-09-11T12:27:10Z</time>
      </trkpt>
      <trkpt lat="47.26838" lon="-1.54018">
        <ele>5.6</ele>
        <time>2017-09-11T12:27:18Z</time>
      </trkpt>
      <trkpt lat="47.26846" lon="-1.54011">
        <ele>5.6</ele>
        <time>2017-09-11T12:27:25Z</time>
      </trkpt>
      <trkpt lat="47.26854" lon="-1.54003">
        <ele>5.5</ele>
        <time>2017-09-11T12:27:32Z</time>
      </trkpt>
      <trkpt lat="47.26863" lon="-1.53996">
        <ele>5.5</ele>
        <time>2017-09-11T12:27:41Z</time>
      </trkpt>
      <trkpt lat="47.26871" lon="-1.53991">
        <ele>5.5</ele>
        <time>2017-09-11T12:27:51Z</time>
      </trkpt>
      <trkpt lat="47.2688" lon="-1.53986">
        <ele>5.4</ele>
        <time>2017-09-11T12:28:01Z</time>
      </trkpt>
      <trkpt lat="47.26889" lon="-1.53982">
        <ele>5.3</ele>
        <time>2017-09-11T12:28:10Z</time>
      </trkpt>
      <trkpt lat="47.26898" lon="-1.53979">
        <ele>5.3</ele>
        <time>2017-09-11T12:28:17Z</time>
      </trkpt>
      <trkpt lat="47.26908" lon="-1.53976">
        <ele>5.2</ele>
        <time>2017-09-11T12:28:24Z</time>
      </trkpt>
      <trkpt lat="47.26917" lon="-1.53972">
        <ele>5</ele>
        <time>2017-09-11T12:28:31Z</time>
      </trkpt>
      <trkpt lat="47.26926" lon="-1.53969">
        <ele>4.9</ele>
        <time>2017-09-11T12:28:40Z</time>
      </trkpt>
      <trkpt lat="47.26935" lon="-1.53966">
        <ele>4.8</ele>
        <time>2017-09-11T12:28:49Z</time>
      </trkpt>
      <trkpt lat="47.26945" lon="-1.53963">
        <ele>4.7</ele>
        <time>2017-09-11T12:28:58Z</time>
      </trkpt>
      <trkpt lat="47.26954" lon="-1.53959">
        <ele>4.7</ele>
        <time>2017-09-11T12:29:07Z</time>
      </trkpt>
      <trkpt lat="47.26963" lon="-1.53957">
        <ele>4.6</ele>
        <time>2017-09-11T12:29:15Z</time>
      </trkpt>
      <trkpt lat="47.26972" lon="-1.53954">
        <ele>4.3</ele>
        <time>2017-09-11T12:29:23Z</time>
      </trkpt>
      <trkpt lat="47.26981" lon="-1.5395">
        <ele>3.6</ele>
        <time>2017-09-11T12:29:31Z</time>
      </trkpt>
      <trkpt lat="47.26989" lon="-1.53945">
        <ele>3.2</ele>
        <time>2017-09-11T12:29:39Z</time>
      </trkpt>
      <trkpt lat="47.26997" lon="-1.53937">
        <ele>2.7</ele>
        <time>2017-09-11T12:29:47Z</time>
      </trkpt>
      <trkpt lat="47.27005" lon="-1.53928">
        <ele>2.2</ele>
        <time>2017-09-11T12:29:55Z</time>
      </trkpt>
      <trkpt lat="47.27013" lon="-1.53918">
        <ele>1.7</ele>
        <time>2017-09-11T12:30:02Z</time>
      </trkpt>
      <trkpt lat="47.27018" lon="-1.53907">
        <ele>1.4</ele>
        <time>2017-09-11T12:30:09Z</time>
      </trkpt>
      <trkpt lat="47.27026" lon="-1.53897">
        <ele>0.9</ele>
        <time>2017-09-11T12:30:16Z</time>
      </trkpt>
      <trkpt lat="47.27033" lon="-1.53888">
        <ele>0.4</ele>
        <time>2017-09-11T12:30:24Z</time>
      </trkpt>
      <trkpt lat="47.2704" lon="-1.53878">
        <ele>0.3</ele>
        <time>2017-09-11T12:30:34Z</time>
      </trkpt>
      <trkpt lat="47.27046" lon="-1.53868">
        <ele>0.5</ele>
        <time>2017-09-11T12:30:43Z</time>
      </trkpt>
      <trkpt lat="47.27053" lon="-1.53859">
        <ele>0.6</ele>
        <time>2017-09-11T12:30:52Z</time>
      </trkpt>
      <trkpt lat="47.27059" lon="-1.53849">
        <ele>1</ele>
        <time>2017-09-11T12:31:00Z</time>
      </trkpt>
      <trkpt lat="47.27066" lon="-1.5384">
        <ele>1.4</ele>
        <time>2017-09-11T12:31:08Z</time>
      </trkpt>
      <trkpt lat="47.27073" lon="-1.5383">
        <ele>1.9</ele>
        <time>2017-09-11T12:31:17Z</time>
      </trkpt>
      <trkpt lat="47.2708" lon="-1.53821">
        <ele>2.4</ele>
        <time>2017-09-11T12:31:25Z</time>
      </trkpt>
      <trkpt lat="47.27088" lon="-1.53811">
        <ele>2.8</ele>
        <time>2017-09-11T12:31:34Z</time>
      </trkpt>
      <trkpt lat="47.27096" lon="-1.53803">
        <ele>3.4</ele>
        <time>2017-09-11T12:31:42Z</time>
      </trkpt>
      <trkpt lat="47.27104" lon="-1.53796">
        <ele>3.7</ele>
        <time>2017-09-11T12:31:50Z</time>
      </trkpt>
      <trkpt lat="47.27113" lon="-1.53787">
        <ele>3.9</ele>
        <time>2017-09-11T12:31:58Z</time>
      </trkpt>
      <trkpt lat="47.27121" lon="-1.53777">
        <ele>4</ele>
        <time>2017-09-11T12:32:06Z</time>
      </trkpt>
      <trkpt lat="47.27129" lon="-1.5377">
        <ele>4.1</ele>
        <time>2017-09-11T12:32:13Z</time>
      </trkpt>
      <trkpt lat="47.27136" lon="-1.53763">
        <ele>4.1</ele>
        <time>2017-09-11T12:32:20Z</time>
      </trkpt>
      <trkpt lat="47.27144" lon="-1.53753">
        <ele>4.2</ele>
        <time>2017-09-11T12:32:27Z</time>
      </trkpt>
      <trkpt lat="47.27152" lon="-1.53744">
        <ele>4.2</ele>
        <time>2017-09-11T12:32:35Z</time>
      </trkpt>
      <trkpt lat="47.2716" lon="-1.53736">
        <ele>4.2</ele>
        <time>2017-09-11T12:32:44Z</time>
      </trkpt>
      <trkpt lat="47.27168" lon="-1.5373">
        <ele>4.3</ele>
        <time>2017-09-11T12:32:52Z</time>
      </trkpt>
      <trkpt lat="47.27177" lon="-1.53722">
        <ele>4.6</ele>
        <time>2017-09-11T12:33:01Z</time>
      </trkpt>
      <trkpt lat="47.27184" lon="-1.53714">
        <ele>5.1</ele>
        <time>2017-09-11T12:33:09Z</time>
      </trkpt>
      <trkpt lat="47.27192" lon="-1.53706">
        <ele>5.4</ele>
        <time>2017-09-11T12:33:17Z</time>
      </trkpt>
      <trkpt lat="47.272" lon="-1.53698">
        <ele>6.2</ele>
        <time>2017-09-11T12:33:26Z</time>
      </trkpt>
      <trkpt lat="47.27208" lon="-1.5369">
        <ele>6.9</ele>
        <time>2017-09-11T12:33:36Z</time>
      </trkpt>
      <trkpt lat="47.27216" lon="-1.53682">
        <ele>7.4</ele>
        <time>2017-09-11T12:33:47Z</time>
      </trkpt>
      <trkpt lat="47.27225" lon="-1.53676">
        <ele>7.7</ele>
        <time>2017-09-11T12:33:56Z</time>
      </trkpt>
      <trkpt lat="47.27232" lon="-1.53685">
        <ele>7.9</ele>
        <time>2017-09-11T12:34:08Z</time>
      </trkpt>
      <trkpt lat="47.27237" lon="-1.53697">
        <ele>7.9</ele>
        <time>2017-09-11T12:34:16Z</time>
      </trkpt>
      <trkpt lat="47.27242" lon="-1.53709">
        <ele>8</ele>
        <time>2017-09-11T12:34:24Z</time>
      </trkpt>
      <trkpt lat="47.27248" lon="-1.5372">
        <ele>8</ele>
        <time>2017-09-11T12:34:31Z</time>
      </trkpt>
      <trkpt lat="47.27254" lon="-1.53731">
        <ele>8</ele>
        <time>2017-09-11T12:34:39Z</time>
      </trkpt>
      <trkpt lat="47.27261" lon="-1.5374">
        <ele>8.2</ele>
        <time>2017-09-11T12:34:46Z</time>
      </trkpt>
      <trkpt lat="47.27268" lon="-1.53749">
        <ele>8.5</ele>
        <time>2017-09-11T12:34:53Z</time>
      </trkpt>
      <trkpt lat="47.27275" lon="-1.53758">
        <ele>8.8</ele>
        <time>2017-09-11T12:35:00Z</time>
      </trkpt>
      <trkpt lat="47.27283" lon="-1.53767">
        <ele>8.8</ele>
        <time>2017-09-11T12:35:07Z</time>
      </trkpt>
      <trkpt lat="47.2729" lon="-1.53776">
        <ele>8.9</ele>
        <time>2017-09-11T12:35:14Z</time>
      </trkpt>
      <trkpt lat="47.27299" lon="-1.5378">
        <ele>9.1</ele>
        <time>2017-09-11T12:35:21Z</time>
      </trkpt>
      <trkpt lat="47.27308" lon="-1.53781">
        <ele>9.1</ele>
        <time>2017-09-11T12:35:29Z</time>
      </trkpt>
      <trkpt lat="47.27318" lon="-1.53777">
        <ele>9.2</ele>
        <time>2017-09-11T12:35:38Z</time>
      </trkpt>
      <trkpt lat="47.27327" lon="-1.53771">
        <ele>9.1</ele>
        <time>2017-09-11T12:35:48Z</time>
      </trkpt>
      <trkpt lat="47.27335" lon="-1.53764">
        <ele>9.1</ele>
        <time>2017-09-11T12:35:56Z</time>
      </trkpt>
      <trkpt lat="47.27343" lon="-1.53758">
        <ele>9.1</ele>
        <time>2017-09-11T12:36:05Z</time>
      </trkpt>
      <trkpt lat="47.2735" lon="-1.53751">
        <ele>9.5</ele>
        <time>2017-09-11T12:36:14Z</time>
      </trkpt>
      <trkpt lat="47.27359" lon="-1.53745">
        <ele>9.9</ele>
        <time>2017-09-11T12:36:24Z</time>
      </trkpt>
      <trkpt lat="47.27367" lon="-1.5374">
        <ele>10.2</ele>
        <time>2017-09-11T12:36:33Z</time>
      </trkpt>
      <trkpt lat="47.27376" lon="-1.53734">
        <ele>10.5</ele>
        <time>2017-09-11T12:36:41Z</time>
      </trkpt>
      <trkpt lat="47.27385" lon="-1.53728">
        <ele>11.1</ele>
        <time>2017-09-11T12:36:50Z</time>
      </trkpt>
      <trkpt lat="47.27393" lon="-1.53722">
        <ele>11.6</ele>
        <time>2017-09-11T12:36:58Z</time>
      </trkpt>
      <trkpt lat="47.27403" lon="-1.53716">
        <ele>12.4</ele>
        <time>2017-09-11T12:37:06Z</time>
      </trkpt>
      <trkpt lat="47.27412" lon="-1.53711">
        <ele>13.1</ele>
        <time>2017-09-11T12:37:14Z</time>
      </trkpt>
      <trkpt lat="47.27421" lon="-1.53706">
        <ele>13.7</ele>
        <time>2017-09-11T12:37:23Z</time>
      </trkpt>
      <trkpt lat="47.2743" lon="-1.537">
        <ele>14.2</ele>
        <time>2017-09-11T12:37:31Z</time>
      </trkpt>
      <trkpt lat="47.27438" lon="-1.53695">
        <ele>14.5</ele>
        <time>2017-09-11T12:37:38Z</time>
      </trkpt>
      <trkpt lat="47.27446" lon="-1.53687">
        <ele>14.6</ele>
        <time>2017-09-11T12:37:46Z</time>
      </trkpt>
      <trkpt lat="47.27451" lon="-1.53674">
        <ele>14.7</ele>
        <time>2017-09-11T12:37:56Z</time>
      </trkpt>
      <trkpt lat="47.27451" lon="-1.5366">
        <ele>15.2</ele>
        <time>2017-09-11T12:38:07Z</time>
      </trkpt>
      <trkpt lat="47.27446" lon="-1.53649">
        <ele>15.3</ele>
        <time>2017-09-11T12:38:20Z</time>
      </trkpt>
      <trkpt lat="47.27439" lon="-1.53639">
        <ele>15</ele>
        <time>2017-09-11T12:38:29Z</time>
      </trkpt>
      <trkpt lat="47.27439" lon="-1.53626">
        <ele>14.7</ele>
        <time>2017-09-11T12:38:38Z</time>
      </trkpt>
      <trkpt lat="47.27442" lon="-1.53613">
        <ele>14.4</ele>
        <time>2017-09-11T12:38:46Z</time>
      </trkpt>
      <trkpt lat="47.27444" lon="-1.536">
        <ele>14.2</ele>
        <time>2017-09-11T12:38:53Z</time>
      </trkpt>
      <trkpt lat="47.27444" lon="-1.53586">
        <ele>14</ele>
        <time>2017-09-11T12:39:01Z</time>
      </trkpt>
      <trkpt lat="47.27445" lon="-1.53572">
        <ele>13.2</ele>
        <time>2017-09-11T12:39:09Z</time>
      </trkpt>
      <trkpt lat="47.27445" lon="-1.53557">
        <ele>12.3</ele>
        <time>2017-09-11T12:39:19Z</time>
      </trkpt>
      <trkpt lat="47.27445" lon="-1.53542">
        <ele>11.6</ele>
        <time>2017-09-11T12:39:28Z</time>
      </trkpt>
      <trkpt lat="47.27444" lon="-1.53528">
        <ele>10.8</ele>
        <time>2017-09-11T12:39:39Z</time>
      </trkpt>
      <trkpt lat="47.27437" lon="-1.5352">
        <ele>10.3</ele>
        <time>2017-09-11T12:39:50Z</time>
      </trkpt>
      <trkpt lat="47.27428" lon="-1.53513">
        <ele>10</ele>
        <time>2017-09-11T12:39:58Z</time>
      </trkpt>
      <trkpt lat="47.2742" lon="-1.53507">
        <ele>9.5</ele>
        <time>2017-09-11T12:40:07Z</time>
      </trkpt>
      <trkpt lat="47.27413" lon="-1.53498">
        <ele>8.9</ele>
        <time>2017-09-11T12:40:16Z</time>
      </trkpt>
      <trkpt lat="47.27407" lon="-1.53486">
        <ele>7.8</ele>
        <time>2017-09-11T12:40:25Z</time>
      </trkpt>
      <trkpt lat="47.27399" lon="-1.53479">
        <ele>7</ele>
        <time>2017-09-11T12:40:34Z</time>
      </trkpt>
      <trkpt lat="47.27391" lon="-1.53471">
        <ele>6.6</ele>
        <time>2017-09-11T12:40:42Z</time>
      </trkpt>
      <trkpt lat="47.27386" lon="-1.53459">
        <ele>6.3</ele>
        <time>2017-09-11T12:40:50Z</time>
      </trkpt>
      <trkpt lat="47.27379" lon="-1.5345">
        <ele>6</ele>
        <time>2017-09-11T12:40:59Z</time>
      </trkpt>
      <trkpt lat="47.2737" lon="-1.53443">
        <ele>5.8</ele>
        <time>2017-09-11T12:41:08Z</time>
      </trkpt>
      <trkpt lat="47.27361" lon="-1.53436">
        <ele>5.6</ele>
        <time>2017-09-11T12:41:16Z</time>
      </trkpt>
      <trkpt lat="47.27354" lon="-1.53426">
        <ele>5.4</ele>
        <time>2017-09-11T12:41:24Z</time>
      </trkpt>
      <trkpt lat="47.2735" lon="-1.53414">
        <ele>4.8</ele>
        <time>2017-09-11T12:41:33Z</time>
      </trkpt>
      <trkpt lat="47.27349" lon="-1.53399">
        <ele>4.3</ele>
        <time>2017-09-11T12:41:43Z</time>
      </trkpt>
      <trkpt lat="47.2735" lon="-1.53386">
        <ele>4.1</ele>
        <time>2017-09-11T12:41:52Z</time>
      </trkpt>
      <trkpt lat="47.27352" lon="-1.53371">
        <ele>4</ele>
        <time>2017-09-11T12:42:00Z</time>
      </trkpt>
      <trkpt lat="47.27353" lon="-1.53357">
        <ele>3.5</ele>
        <time>2017-09-11T12:42:08Z</time>
      </trkpt>
      <trkpt lat="47.27356" lon="-1.53344">
        <ele>2.9</ele>
        <time>2017-09-11T12:42:16Z</time>
      </trkpt>
      <trkpt lat="47.27358" lon="-1.5333">
        <ele>2.4</ele>
        <time>2017-09-11T12:42:23Z</time>
      </trkpt>
      <trkpt lat="47.27361" lon="-1.53316">
        <ele>2</ele>
        <time>2017-09-11T12:42:31Z</time>
      </trkpt>
      <trkpt lat="47.27363" lon="-1.53302">
        <ele>1.6</ele>
        <time>2017-09-11T12:42:39Z</time>
      </trkpt>
      <trkpt lat="47.27365" lon="-1.53289">
        <ele>1.3</ele>
        <time>2017-09-11T12:42:48Z</time>
      </trkpt>
      <trkpt lat="47.27368" lon="-1.53275">
        <ele>1.1</ele>
        <time>2017-09-11T12:42:57Z</time>
      </trkpt>
      <trkpt lat="47.27366" lon="-1.53262">
        <ele>1</ele>
        <time>2017-09-11T12:43:05Z</time>
      </trkpt>
      <trkpt lat="47.27364" lon="-1.53248">
        <ele>0.7</ele>
        <time>2017-09-11T12:43:12Z</time>
      </trkpt>
      <trkpt lat="47.27363" lon="-1.53234">
        <ele>0.4</ele>
        <time>2017-09-11T12:43:20Z</time>
      </trkpt>
      <trkpt lat="47.27368" lon="-1.53222">
        <ele>0.3</ele>
        <time>2017-09-11T12:43:28Z</time>
      </trkpt>
      <trkpt lat="47.27373" lon="-1.5321">
        <ele>0.1</ele>
        <time>2017-09-11T12:43:36Z</time>
      </trkpt>
      <trkpt lat="47.2738" lon="-1.53201">
        <ele>6.5</ele>
        <time>2017-09-11T12:43:43Z</time>
      </trkpt>
      <trkpt lat="47.27387" lon="-1.53191">
        <ele>6.7</ele>
        <time>2017-09-11T12:43:51Z</time>
      </trkpt>
      <trkpt lat="47.27397" lon="-1.53185">
        <ele>-0.1</ele>
        <time>2017-09-11T12:44:01Z</time>
      </trkpt>
      <trkpt lat="47.27405" lon="-1.53177">
        <ele>0.2</ele>
        <time>2017-09-11T12:44:09Z</time>
      </trkpt>
      <trkpt lat="47.27413" lon="-1.53171">
        <ele>0.3</ele>
        <time>2017-09-11T12:44:16Z</time>
      </trkpt>
      <trkpt lat="47.27421" lon="-1.53163">
        <ele>0.4</ele>
        <time>2017-09-11T12:44:25Z</time>
      </trkpt>
      <trkpt lat="47.27428" lon="-1.53153">
        <ele>-0.1</ele>
        <time>2017-09-11T12:44:35Z</time>
      </trkpt>
      <trkpt lat="47.27435" lon="-1.53144">
        <ele>-0.7</ele>
        <time>2017-09-11T12:44:44Z</time>
      </trkpt>
      <trkpt lat="47.27442" lon="-1.53134">
        <ele>-1.1</ele>
        <time>2017-09-11T12:44:53Z</time>
      </trkpt>
      <trkpt lat="47.2745" lon="-1.53126">
        <ele>-1.3</ele>
        <time>2017-09-11T12:45:02Z</time>
      </trkpt>
      <trkpt lat="47.27459" lon="-1.5312">
        <ele>-1.4</ele>
        <time>2017-09-11T12:45:11Z</time>
      </trkpt>
      <trkpt lat="47.27469" lon="-1.53116">
        <ele>-1.3</ele>
        <time>2017-09-11T12:45:20Z</time>
      </trkpt>
      <trkpt lat="47.27477" lon="-1.53109">
        <ele>-1.2</ele>
        <time>2017-09-11T12:45:28Z</time>
      </trkpt>
      <trkpt lat="47.27485" lon="-1.53102">
        <ele>-1.2</ele>
        <time>2017-09-11T12:45:36Z</time>
      </trkpt>
      <trkpt lat="47.27492" lon="-1.53095">
        <ele>-1.1</ele>
        <time>2017-09-11T12:45:45Z</time>
      </trkpt>
      <trkpt lat="47.27501" lon="-1.53088">
        <ele>-0.9</ele>
        <time>2017-09-11T12:45:52Z</time>
      </trkpt>
      <trkpt lat="47.2751" lon="-1.53082">
        <ele>-0.9</ele>
        <time>2017-09-11T12:46:00Z</time>
      </trkpt>
      <trkpt lat="47.27518" lon="-1.53075">
        <ele>-0.8</ele>
        <time>2017-09-11T12:46:12Z</time>
      </trkpt>
      <trkpt lat="47.27527" lon="-1.53072">
        <ele>-0.7</ele>
        <time>2017-09-11T12:46:22Z</time>
      </trkpt>
      <trkpt lat="47.27537" lon="-1.53068">
        <ele>-0.7</ele>
        <time>2017-09-11T12:46:30Z</time>
      </trkpt>
      <trkpt lat="47.27545" lon="-1.53062">
        <ele>-0.7</ele>
        <time>2017-09-11T12:46:36Z</time>
      </trkpt>
      <trkpt lat="47.27554" lon="-1.53057">
        <ele>-0.7</ele>
        <time>2017-09-11T12:46:43Z</time>
      </trkpt>
      <trkpt lat="47.27563" lon="-1.53054">
        <ele>-0.7</ele>
        <time>2017-09-11T12:46:50Z</time>
      </trkpt>
      <trkpt lat="47.27572" lon="-1.53054">
        <ele>-0.8</ele>
        <time>2017-09-11T12:46:59Z</time>
      </trkpt>
      <trkpt lat="47.27581" lon="-1.53058">
        <ele>-1</ele>
        <time>2017-09-11T12:47:10Z</time>
      </trkpt>
      <trkpt lat="47.27591" lon="-1.53058">
        <ele>-1.1</ele>
        <time>2017-09-11T12:47:22Z</time>
      </trkpt>
      <trkpt lat="47.276" lon="-1.53056">
        <ele>-1.2</ele>
        <time>2017-09-11T12:47:33Z</time>
      </trkpt>
      <trkpt lat="47.27609" lon="-1.53057">
        <ele>-1.6</ele>
        <time>2017-09-11T12:47:42Z</time>
      </trkpt>
      <trkpt lat="47.27617" lon="-1.53062">
        <ele>-1.9</ele>
        <time>2017-09-11T12:47:49Z</time>
      </trkpt>
      <trkpt lat="47.27623" lon="-1.53073">
        <ele>-2.4</ele>
        <time>2017-09-11T12:47:58Z</time>
      </trkpt>
      <trkpt lat="47.27628" lon="-1.53085">
        <ele>-2.6</ele>
        <time>2017-09-11T12:48:10Z</time>
      </trkpt>
      <trkpt lat="47.27632" lon="-1.53097">
        <ele>-2.4</ele>
        <time>2017-09-11T12:48:18Z</time>
      </trkpt>
      <trkpt lat="47.27635" lon="-1.53111">
        <ele>-2.3</ele>
        <time>2017-09-11T12:48:27Z</time>
      </trkpt>
      <trkpt lat="47.27637" lon="-1.53125">
        <ele>-2.3</ele>
        <time>2017-09-11T12:48:37Z</time>
      </trkpt>
      <trkpt lat="47.27639" lon="-1.53138">
        <ele>-2.5</ele>
        <time>2017-09-11T12:48:46Z</time>
      </trkpt>
      <trkpt lat="47.27641" lon="-1.53152">
        <ele>-2.6</ele>
        <time>2017-09-11T12:48:56Z</time>
      </trkpt>
      <trkpt lat="47.27643" lon="-1.53165">
        <ele>-2.6</ele>
        <time>2017-09-11T12:49:08Z</time>
      </trkpt>
      <trkpt lat="47.27645" lon="-1.53179">
        <ele>-2.5</ele>
        <time>2017-09-11T12:49:18Z</time>
      </trkpt>
      <trkpt lat="47.27649" lon="-1.53192">
        <ele>-2.1</ele>
        <time>2017-09-11T12:49:29Z</time>
      </trkpt>
      <trkpt lat="47.27651" lon="-1.53205">
        <ele>-2</ele>
        <time>2017-09-11T12:49:37Z</time>
      </trkpt>
      <trkpt lat="47.27653" lon="-1.53219">
        <ele>-2</ele>
        <time>2017-09-11T12:49:46Z</time>
      </trkpt>
      <trkpt lat="47.27654" lon="-1.53233">
        <ele>-2</ele>
        <time>2017-09-11T12:49:59Z</time>
      </trkpt>
      <trkpt lat="47.27656" lon="-1.53246">
        <ele>-1.6</ele>
        <time>2017-09-11T12:50:10Z</time>
      </trkpt>
      <trkpt lat="47.2766" lon="-1.53259">
        <ele>-1.4</ele>
        <time>2017-09-11T12:50:20Z</time>
      </trkpt>
      <trkpt lat="47.27665" lon="-1.53271">
        <ele>-1.3</ele>
        <time>2017-09-11T12:50:31Z</time>
      </trkpt>
      <trkpt lat="47.27667" lon="-1.53284">
        <ele>-1.2</ele>
        <time>2017-09-11T12:50:40Z</time>
      </trkpt>
      <trkpt lat="47.27669" lon="-1.53298">
        <ele>-0.8</ele>
        <time>2017-09-11T12:50:48Z</time>
      </trkpt>
      <trkpt lat="47.27671" lon="-1.53312">
        <ele>-0.5</ele>
        <time>2017-09-11T12:50:56Z</time>
      </trkpt>
      <trkpt lat="47.27673" lon="-1.53325">
        <ele>-0.4</ele>
        <time>2017-09-11T12:51:04Z</time>
      </trkpt>
      <trkpt lat="47.27675" lon="-1.53338">
        <ele>-0.4</ele>
        <time>2017-09-11T12:51:12Z</time>
      </trkpt>
      <trkpt lat="47.27672" lon="-1.53351">
        <ele>-0.5</ele>
        <time>2017-09-11T12:51:25Z</time>
      </trkpt>
      <trkpt lat="47.27664" lon="-1.53357">
        <ele>0.3</ele>
        <time>2017-09-11T12:51:39Z</time>
      </trkpt>
      <trkpt lat="47.27655" lon="-1.53362">
        <ele>1.4</ele>
        <time>2017-09-11T12:51:55Z</time>
      </trkpt>
      <trkpt lat="47.27646" lon="-1.53363">
        <ele>1.9</ele>
        <time>2017-09-11T12:52:03Z</time>
      </trkpt>
      <trkpt lat="47.27636" lon="-1.53364">
        <ele>3</ele>
        <time>2017-09-11T12:52:14Z</time>
      </trkpt>
      <trkpt lat="47.27634" lon="-1.53379">
        <ele>3.7</ele>
        <time>2017-09-11T12:52:26Z</time>
      </trkpt>
      <trkpt lat="47.27636" lon="-1.53393">
        <ele>4.1</ele>
        <time>2017-09-11T12:52:37Z</time>
      </trkpt>
      <trkpt lat="47.27637" lon="-1.53407">
        <ele>4.3</ele>
        <time>2017-09-11T12:52:45Z</time>
      </trkpt>
      <trkpt lat="47.2764" lon="-1.5342">
        <ele>4.8</ele>
        <time>2017-09-11T12:52:53Z</time>
      </trkpt>
      <trkpt lat="47.27643" lon="-1.53432">
        <ele>5.2</ele>
        <time>2017-09-11T12:53:00Z</time>
      </trkpt>
      <trkpt lat="47.27646" lon="-1.53446">
        <ele>5.6</ele>
        <time>2017-09-11T12:53:08Z</time>
      </trkpt>
      <trkpt lat="47.27647" lon="-1.53461">
        <ele>6.1</ele>
        <time>2017-09-11T12:53:16Z</time>
      </trkpt>
      <trkpt lat="47.27648" lon="-1.53475">
        <ele>6.5</ele>
        <time>2017-09-11T12:53:24Z</time>
      </trkpt>
      <trkpt lat="47.2765" lon="-1.53489">
        <ele>6.7</ele>
        <time>2017-09-11T12:53:32Z</time>
      </trkpt>
      <trkpt lat="47.27651" lon="-1.53504">
        <ele>7.3</ele>
        <time>2017-09-11T12:53:40Z</time>
      </trkpt>
      <trkpt lat="47.27652" lon="-1.53518">
        <ele>8</ele>
        <time>2017-09-11T12:53:49Z</time>
      </trkpt>
      <trkpt lat="47.27654" lon="-1.5353">
        <ele>8.4</ele>
        <time>2017-09-11T12:53:57Z</time>
      </trkpt>
      <trkpt lat="47.27655" lon="-1.53544">
        <ele>8.5</ele>
        <time>2017-09-11T12:54:04Z</time>
      </trkpt>
      <trkpt lat="47.27658" lon="-1.53556">
        <ele>8.6</ele>
        <time>2017-09-11T12:54:11Z</time>
      </trkpt>
      <trkpt lat="47.27665" lon="-1.53564">
        <ele>8.7</ele>
        <time>2017-09-11T12:54:24Z</time>
      </trkpt>
      <trkpt lat="47.27674" lon="-1.53562">
        <ele>8.1</ele>
        <time>2017-09-11T12:54:38Z</time>
      </trkpt>
      <trkpt lat="47.27684" lon="-1.53564">
        <ele>7.5</ele>
        <time>2017-09-11T12:54:48Z</time>
      </trkpt>
      <trkpt lat="47.27693" lon="-1.53563">
        <ele>6.6</ele>
        <time>2017-09-11T12:54:57Z</time>
      </trkpt>
      <trkpt lat="47.27702" lon="-1.5356">
        <ele>5.7</ele>
        <time>2017-09-11T12:55:08Z</time>
      </trkpt>
      <trkpt lat="47.27712" lon="-1.53556">
        <ele>5.1</ele>
        <time>2017-09-11T12:55:18Z</time>
      </trkpt>
      <trkpt lat="47.27721" lon="-1.5356">
        <ele>4.7</ele>
        <time>2017-09-11T12:55:30Z</time>
      </trkpt>
      <trkpt lat="47.27726" lon="-1.53571">
        <ele>5</ele>
        <time>2017-09-11T12:55:39Z</time>
      </trkpt>
      <trkpt lat="47.27732" lon="-1.53582">
        <ele>5.4</ele>
        <time>2017-09-11T12:55:48Z</time>
      </trkpt>
      <trkpt lat="47.27736" lon="-1.53594">
        <ele>5.8</ele>
        <time>2017-09-11T12:56:00Z</time>
      </trkpt>
      <trkpt lat="47.2774" lon="-1.53608">
        <ele>6.1</ele>
        <time>2017-09-11T12:56:10Z</time>
      </trkpt>
      <trkpt lat="47.27744" lon="-1.5362">
        <ele>6.6</ele>
        <time>2017-09-11T12:56:19Z</time>
      </trkpt>
      <trkpt lat="47.27749" lon="-1.53632">
        <ele>7.3</ele>
        <time>2017-09-11T12:56:29Z</time>
      </trkpt>
      <trkpt lat="47.27755" lon="-1.53643">
        <ele>8</ele>
        <time>2017-09-11T12:56:38Z</time>
      </trkpt>
      <trkpt lat="47.27762" lon="-1.53653">
        <ele>8.6</ele>
        <time>2017-09-11T12:56:47Z</time>
      </trkpt>
      <trkpt lat="47.27769" lon="-1.53664">
        <ele>9.2</ele>
        <time>2017-09-11T12:56:56Z</time>
      </trkpt>
      <trkpt lat="47.27775" lon="-1.53673">
        <ele>9.5</ele>
        <time>2017-09-11T12:57:04Z</time>
      </trkpt>
      <trkpt lat="47.27783" lon="-1.53681">
        <ele>10</ele>
        <time>2017-09-11T12:57:13Z</time>
      </trkpt>
      <trkpt lat="47.27793" lon="-1.53686">
        <ele>10.5</ele>
        <time>2017-09-11T12:57:23Z</time>
      </trkpt>
      <trkpt lat="47.27802" lon="-1.53687">
        <ele>10.7</ele>
        <time>2017-09-11T12:57:31Z</time>
      </trkpt>
      <trkpt lat="47.27808" lon="-1.53675">
        <ele>10.9</ele>
        <time>2017-09-11T12:57:41Z</time>
      </trkpt>
      <trkpt lat="47.27809" lon="-1.53661">
        <ele>11</ele>
        <time>2017-09-11T12:57:49Z</time>
      </trkpt>
      <trkpt lat="47.2781" lon="-1.53647">
        <ele>11.2</ele>
        <time>2017-09-11T12:57:57Z</time>
      </trkpt>
      <trkpt lat="47.27811" lon="-1.53634">
        <ele>11.4</ele>
        <time>2017-09-11T12:58:05Z</time>
      </trkpt>
      <trkpt lat="47.27811" lon="-1.53619">
        <ele>11.9</ele>
        <time>2017-09-11T12:58:14Z</time>
      </trkpt>
      <trkpt lat="47.27812" lon="-1.53606">
        <ele>12.2</ele>
        <time>2017-09-11T12:58:24Z</time>
      </trkpt>
      <trkpt lat="47.27811" lon="-1.53592">
        <ele>12.4</ele>
        <time>2017-09-11T12:58:40Z</time>
      </trkpt>
      <trkpt lat="47.27811" lon="-1.53579">
        <ele>12.7</ele>
        <time>2017-09-11T12:58:56Z</time>
      </trkpt>
      <trkpt lat="47.2781" lon="-1.53565">
        <ele>12.8</ele>
        <time>2017-09-11T12:59:07Z</time>
      </trkpt>
      <trkpt lat="47.27807" lon="-1.53552">
        <ele>12.9</ele>
        <time>2017-09-11T12:59:16Z</time>
      </trkpt>
      <trkpt lat="47.27805" lon="-1.53538">
        <ele>12.9</ele>
        <time>2017-09-11T12:59:25Z</time>
      </trkpt>
      <trkpt lat="47.27804" lon="-1.53523">
        <ele>13.1</ele>
        <time>2017-09-11T12:59:34Z</time>
      </trkpt>
      <trkpt lat="47.27802" lon="-1.53508">
        <ele>13.1</ele>
        <time>2017-09-11T12:59:43Z</time>
      </trkpt>
      <trkpt lat="47.27801" lon="-1.53495">
        <ele>13.1</ele>
        <time>2017-09-11T12:59:51Z</time>
      </trkpt>
      <trkpt lat="47.27799" lon="-1.53481">
        <ele>13.1</ele>
        <time>2017-09-11T12:59:58Z</time>
      </trkpt>
      <trkpt lat="47.27796" lon="-1.53468">
        <ele>12.7</ele>
        <time>2017-09-11T13:00:06Z</time>
      </trkpt>
      <trkpt lat="47.27792" lon="-1.53454">
        <ele>12</ele>
        <time>2017-09-11T13:00:14Z</time>
      </trkpt>
      <trkpt lat="47.27789" lon="-1.5344">
        <ele>11.7</ele>
        <time>2017-09-11T13:00:22Z</time>
      </trkpt>
      <trkpt lat="47.27786" lon="-1.53426">
        <ele>11.2</ele>
        <time>2017-09-11T13:00:31Z</time>
      </trkpt>
      <trkpt lat="47.27785" lon="-1.53413">
        <ele>10.7</ele>
        <time>2017-09-11T13:00:48Z</time>
      </trkpt>
      <trkpt lat="47.27782" lon="-1.53399">
        <ele>10.5</ele>
        <time>2017-09-11T13:00:58Z</time>
      </trkpt>
      <trkpt lat="47.27779" lon="-1.53387">
        <ele>10.1</ele>
        <time>2017-09-11T13:01:08Z</time>
      </trkpt>
      <trkpt lat="47.27774" lon="-1.53375">
        <ele>9.2</ele>
        <time>2017-09-11T13:01:28Z</time>
      </trkpt>
      <trkpt lat="47.27771" lon="-1.53362">
        <ele>8.9</ele>
        <time>2017-09-11T13:01:38Z</time>
      </trkpt>
      <trkpt lat="47.27768" lon="-1.53348">
        <ele>8</ele>
        <time>2017-09-11T13:01:59Z</time>
      </trkpt>
      <trkpt lat="47.27764" lon="-1.53335">
        <ele>7.5</ele>
        <time>2017-09-11T13:02:10Z</time>
      </trkpt>
      <trkpt lat="47.27761" lon="-1.53322">
        <ele>7.3</ele>
        <time>2017-09-11T13:02:18Z</time>
      </trkpt>
      <trkpt lat="47.27757" lon="-1.53309">
        <ele>7.2</ele>
        <time>2017-09-11T13:02:27Z</time>
      </trkpt>
      <trkpt lat="47.27756" lon="-1.53296">
        <ele>7.1</ele>
        <time>2017-09-11T13:02:37Z</time>
      </trkpt>
      <trkpt lat="47.27754" lon="-1.53282">
        <ele>7.1</ele>
        <time>2017-09-11T13:02:46Z</time>
      </trkpt>
      <trkpt lat="47.27752" lon="-1.53269">
        <ele>7</ele>
        <time>2017-09-11T13:02:54Z</time>
      </trkpt>
      <trkpt lat="47.27749" lon="-1.53255">
        <ele>6.4</ele>
        <time>2017-09-11T13:03:03Z</time>
      </trkpt>
      <trkpt lat="47.27745" lon="-1.53241">
        <ele>6</ele>
        <time>2017-09-11T13:03:11Z</time>
      </trkpt>
      <trkpt lat="47.27742" lon="-1.53228">
        <ele>5.8</ele>
        <time>2017-09-11T13:03:20Z</time>
      </trkpt>
      <trkpt lat="47.2774" lon="-1.53215">
        <ele>5.7</ele>
        <time>2017-09-11T13:03:28Z</time>
      </trkpt>
      <trkpt lat="47.27738" lon="-1.53201">
        <ele>5.6</ele>
        <time>2017-09-11T13:03:39Z</time>
      </trkpt>
      <trkpt lat="47.27737" lon="-1.53187">
        <ele>5.2</ele>
        <time>2017-09-11T13:03:48Z</time>
      </trkpt>
      <trkpt lat="47.27737" lon="-1.53173">
        <ele>4.9</ele>
        <time>2017-09-11T13:03:58Z</time>
      </trkpt>
      <trkpt lat="47.27742" lon="-1.53185">
        <ele>4.6</ele>
        <time>2017-09-11T13:04:20Z</time>
      </trkpt>
      <trkpt lat="47.27751" lon="-1.53189">
        <ele>4.9</ele>
        <time>2017-09-11T13:04:38Z</time>
      </trkpt>
      <trkpt lat="47.2776" lon="-1.53186">
        <ele>5</ele>
        <time>2017-09-11T13:04:49Z</time>
      </trkpt>
      <trkpt lat="47.27769" lon="-1.53184">
        <ele>5</ele>
        <time>2017-09-11T13:04:58Z</time>
      </trkpt>
      <trkpt lat="47.27779" lon="-1.53181">
        <ele>5.1</ele>
        <time>2017-09-11T13:05:09Z</time>
      </trkpt>
      <trkpt lat="47.27788" lon="-1.53177">
        <ele>5</ele>
        <time>2017-09-11T13:05:16Z</time>
      </trkpt>
      <trkpt lat="47.27797" lon="-1.53172">
        <ele>4.8</ele>
        <time>2017-09-11T13:05:24Z</time>
      </trkpt>
      <trkpt lat="47.27806" lon="-1.53167">
        <ele>4.7</ele>
        <time>2017-09-11T13:05:32Z</time>
      </trkpt>
      <trkpt lat="47.27815" lon="-1.53161">
        <ele>4.6</ele>
        <time>2017-09-11T13:05:40Z</time>
      </trkpt>
      <trkpt lat="47.27823" lon="-1.53156">
        <ele>3.9</ele>
        <time>2017-09-11T13:05:48Z</time>
      </trkpt>
      <trkpt lat="47.27833" lon="-1.53153">
        <ele>3.4</ele>
        <time>2017-09-11T13:05:57Z</time>
      </trkpt>
      <trkpt lat="47.27842" lon="-1.53151">
        <ele>3.5</ele>
        <time>2017-09-11T13:06:05Z</time>
      </trkpt>
      <trkpt lat="47.27851" lon="-1.53148">
        <ele>3.7</ele>
        <time>2017-09-11T13:06:12Z</time>
      </trkpt>
      <trkpt lat="47.2786" lon="-1.53147">
        <ele>4.3</ele>
        <time>2017-09-11T13:06:27Z</time>
      </trkpt>
      <trkpt lat="47.27869" lon="-1.53141">
        <ele>4.7</ele>
        <time>2017-09-11T13:06:36Z</time>
      </trkpt>
      <trkpt lat="47.27877" lon="-1.53134">
        <ele>5.2</ele>
        <time>2017-09-11T13:06:46Z</time>
      </trkpt>
      <trkpt lat="47.27886" lon="-1.53127">
        <ele>6.4</ele>
        <time>2017-09-11T13:06:57Z</time>
      </trkpt>
      <trkpt lat="47.27894" lon="-1.53121">
        <ele>7.3</ele>
        <time>2017-09-11T13:07:07Z</time>
      </trkpt>
      <trkpt lat="47.27903" lon="-1.53117">
        <ele>10.3</ele>
        <time>2017-09-11T13:08:15Z</time>
      </trkpt>
      <trkpt lat="47.27911" lon="-1.5311">
        <ele>10.6</ele>
        <time>2017-09-11T13:08:28Z</time>
      </trkpt>
      <trkpt lat="47.27917" lon="-1.531">
        <ele>11</ele>
        <time>2017-09-11T13:08:39Z</time>
      </trkpt>
      <trkpt lat="47.27918" lon="-1.53086">
        <ele>11.3</ele>
        <time>2017-09-11T13:08:50Z</time>
      </trkpt>
      <trkpt lat="47.27916" lon="-1.53072">
        <ele>11.5</ele>
        <time>2017-09-11T13:08:58Z</time>
      </trkpt>
      <trkpt lat="47.27917" lon="-1.53059">
        <ele>11.6</ele>
        <time>2017-09-11T13:09:07Z</time>
      </trkpt>
      <trkpt lat="47.27922" lon="-1.53046">
        <ele>11.9</ele>
        <time>2017-09-11T13:09:16Z</time>
      </trkpt>
      <trkpt lat="47.27927" lon="-1.53035">
        <ele>12.4</ele>
        <time>2017-09-11T13:09:24Z</time>
      </trkpt>
      <trkpt lat="47.27932" lon="-1.53022">
        <ele>12.8</ele>
        <time>2017-09-11T13:09:32Z</time>
      </trkpt>
      <trkpt lat="47.27939" lon="-1.53012">
        <ele>13.1</ele>
        <time>2017-09-11T13:09:40Z</time>
      </trkpt>
      <trkpt lat="47.27947" lon="-1.53005">
        <ele>13.5</ele>
        <time>2017-09-11T13:09:49Z</time>
      </trkpt>
      <trkpt lat="47.27953" lon="-1.52994">
        <ele>13.6</ele>
        <time>2017-09-11T13:09:58Z</time>
      </trkpt>
      <trkpt lat="47.27959" lon="-1.52984">
        <ele>13.6</ele>
        <time>2017-09-11T13:10:08Z</time>
      </trkpt>
      <trkpt lat="47.27965" lon="-1.52972">
        <ele>13.6</ele>
        <time>2017-09-11T13:10:19Z</time>
      </trkpt>
      <trkpt lat="47.27971" lon="-1.52962">
        <ele>13.7</ele>
        <time>2017-09-11T13:10:30Z</time>
      </trkpt>
      <trkpt lat="47.27973" lon="-1.52948">
        <ele>13.9</ele>
        <time>2017-09-11T13:10:41Z</time>
      </trkpt>
      <trkpt lat="47.27977" lon="-1.52935">
        <ele>14.2</ele>
        <time>2017-09-11T13:10:52Z</time>
      </trkpt>
      <trkpt lat="47.27986" lon="-1.52932">
        <ele>14.5</ele>
        <time>2017-09-11T13:11:02Z</time>
      </trkpt>
      <trkpt lat="47.27996" lon="-1.5293">
        <ele>14.6</ele>
        <time>2017-09-11T13:11:11Z</time>
      </trkpt>
      <trkpt lat="47.28005" lon="-1.52929">
        <ele>14.6</ele>
        <time>2017-09-11T13:11:19Z</time>
      </trkpt>
      <trkpt lat="47.28015" lon="-1.52928">
        <ele>14.5</ele>
        <time>2017-09-11T13:11:27Z</time>
      </trkpt>
      <trkpt lat="47.28025" lon="-1.52929">
        <ele>14.5</ele>
        <time>2017-09-11T13:11:35Z</time>
      </trkpt>
      <trkpt lat="47.28034" lon="-1.52933">
        <ele>14.5</ele>
        <time>2017-09-11T13:11:43Z</time>
      </trkpt>
      <trkpt lat="47.28042" lon="-1.5294">
        <ele>14.4</ele>
        <time>2017-09-11T13:11:53Z</time>
      </trkpt>
      <trkpt lat="47.28051" lon="-1.52947">
        <ele>14.6</ele>
        <time>2017-09-11T13:12:02Z</time>
      </trkpt>
      <trkpt lat="47.28057" lon="-1.52959">
        <ele>14.7</ele>
        <time>2017-09-11T13:12:10Z</time>
      </trkpt>
      <trkpt lat="47.28063" lon="-1.5297">
        <ele>14.8</ele>
        <time>2017-09-11T13:12:18Z</time>
      </trkpt>
      <trkpt lat="47.28072" lon="-1.52973">
        <ele>15</ele>
        <time>2017-09-11T13:12:30Z</time>
      </trkpt>
      <trkpt lat="47.28075" lon="-1.52986">
        <ele>15.1</ele>
        <time>2017-09-11T13:12:49Z</time>
      </trkpt>
      <trkpt lat="47.28073" lon="-1.52999">
        <ele>15.4</ele>
        <time>2017-09-11T13:12:56Z</time>
      </trkpt>
      <trkpt lat="47.28074" lon="-1.53013">
        <ele>15.6</ele>
        <time>2017-09-11T13:13:04Z</time>
      </trkpt>
      <trkpt lat="47.28075" lon="-1.53027">
        <ele>15.6</ele>
        <time>2017-09-11T13:13:11Z</time>
      </trkpt>
      <trkpt lat="47.28078" lon="-1.5304">
        <ele>16.2</ele>
        <time>2017-09-11T13:13:19Z</time>
      </trkpt>
      <trkpt lat="47.2808" lon="-1.53053">
        <ele>16.8</ele>
        <time>2017-09-11T13:13:27Z</time>
      </trkpt>
      <trkpt lat="47.28082" lon="-1.53067">
        <ele>17.1</ele>
        <time>2017-09-11T13:13:37Z</time>
      </trkpt>
      <trkpt lat="47.28091" lon="-1.53066">
        <ele>17.2</ele>
        <time>2017-09-11T13:13:50Z</time>
      </trkpt>
      <trkpt lat="47.28101" lon="-1.53065">
        <ele>17.4</ele>
        <time>2017-09-11T13:13:58Z</time>
      </trkpt>
      <trkpt lat="47.2811" lon="-1.53064">
        <ele>17.4</ele>
        <time>2017-09-11T13:14:05Z</time>
      </trkpt>
      <trkpt lat="47.28119" lon="-1.53062">
        <ele>17.6</ele>
        <time>2017-09-11T13:14:13Z</time>
      </trkpt>
      <trkpt lat="47.28129" lon="-1.53061">
        <ele>17.4</ele>
        <time>2017-09-11T13:14:21Z</time>
      </trkpt>
      <trkpt lat="47.28139" lon="-1.53061">
        <ele>17.1</ele>
        <time>2017-09-11T13:14:29Z</time>
      </trkpt>
      <trkpt lat="47.28149" lon="-1.53059">
        <ele>16.2</ele>
        <time>2017-09-11T13:14:37Z</time>
      </trkpt>
      <trkpt lat="47.28158" lon="-1.5306">
        <ele>15.5</ele>
        <time>2017-09-11T13:14:45Z</time>
      </trkpt>
      <trkpt lat="47.28166" lon="-1.5307">
        <ele>14.9</ele>
        <time>2017-09-11T13:14:55Z</time>
      </trkpt>
      <trkpt lat="47.28172" lon="-1.53081">
        <ele>14.7</ele>
        <time>2017-09-11T13:15:02Z</time>
      </trkpt>
      <trkpt lat="47.28178" lon="-1.53093">
        <ele>14.6</ele>
        <time>2017-09-11T13:15:10Z</time>
      </trkpt>
      <trkpt lat="47.28183" lon="-1.53105">
        <ele>14.6</ele>
        <time>2017-09-11T13:15:18Z</time>
      </trkpt>
      <trkpt lat="47.28189" lon="-1.53116">
        <ele>14.6</ele>
        <time>2017-09-11T13:15:26Z</time>
      </trkpt>
      <trkpt lat="47.28193" lon="-1.53129">
        <ele>14.6</ele>
        <time>2017-09-11T13:15:35Z</time>
      </trkpt>
      <trkpt lat="47.28198" lon="-1.53141">
        <ele>14.6</ele>
        <time>2017-09-11T13:15:43Z</time>
      </trkpt>
      <trkpt lat="47.28203" lon="-1.53153">
        <ele>14.6</ele>
        <time>2017-09-11T13:15:50Z</time>
      </trkpt>
      <trkpt lat="47.28208" lon="-1.53164">
        <ele>14.8</ele>
        <time>2017-09-11T13:15:58Z</time>
      </trkpt>
      <trkpt lat="47.28214" lon="-1.53174">
        <ele>14.9</ele>
        <time>2017-09-11T13:16:05Z</time>
      </trkpt>
      <trkpt lat="47.28218" lon="-1.53187">
        <ele>14.9</ele>
        <time>2017-09-11T13:16:13Z</time>
      </trkpt>
      <trkpt lat="47.28222" lon="-1.53201">
        <ele>15</ele>
        <time>2017-09-11T13:16:21Z</time>
      </trkpt>
      <trkpt lat="47.28224" lon="-1.53214">
        <ele>15</ele>
        <time>2017-09-11T13:16:28Z</time>
      </trkpt>
      <trkpt lat="47.28225" lon="-1.53229">
        <ele>15.1</ele>
        <time>2017-09-11T13:16:36Z</time>
      </trkpt>
      <trkpt lat="47.28228" lon="-1.53243">
        <ele>15.1</ele>
        <time>2017-09-11T13:16:44Z</time>
      </trkpt>
      <trkpt lat="47.2823" lon="-1.53257">
        <ele>15.2</ele>
        <time>2017-09-11T13:16:52Z</time>
      </trkpt>
      <trkpt lat="47.28231" lon="-1.5327">
        <ele>15.6</ele>
        <time>2017-09-11T13:17:03Z</time>
      </trkpt>
      <trkpt lat="47.28233" lon="-1.53284">
        <ele>15.8</ele>
        <time>2017-09-11T13:17:12Z</time>
      </trkpt>
      <trkpt lat="47.28236" lon="-1.53298">
        <ele>15.5</ele>
        <time>2017-09-11T13:17:20Z</time>
      </trkpt>
      <trkpt lat="47.2824" lon="-1.5331">
        <ele>15.3</ele>
        <time>2017-09-11T13:17:27Z</time>
      </trkpt>
      <trkpt lat="47.2824" lon="-1.53325">
        <ele>15.1</ele>
        <time>2017-09-11T13:17:36Z</time>
      </trkpt>
      <trkpt lat="47.28242" lon="-1.53338">
        <ele>15.1</ele>
        <time>2017-09-11T13:17:45Z</time>
      </trkpt>
      <trkpt lat="47.28247" lon="-1.53351">
        <ele>15.1</ele>
        <time>2017-09-11T13:17:56Z</time>
      </trkpt>
      <trkpt lat="47.28252" lon="-1.53362">
        <ele>14.9</ele>
        <time>2017-09-11T13:18:06Z</time>
      </trkpt>
      <trkpt lat="47.28255" lon="-1.53376">
        <ele>14.8</ele>
        <time>2017-09-11T13:18:15Z</time>
      </trkpt>
      <trkpt lat="47.28264" lon="-1.5338">
        <ele>14.7</ele>
        <time>2017-09-11T13:18:26Z</time>
      </trkpt>
      <trkpt lat="47.28273" lon="-1.53382">
        <ele>14.3</ele>
        <time>2017-09-11T13:18:37Z</time>
      </trkpt>
      <trkpt lat="47.28282" lon="-1.53382">
        <ele>14</ele>
        <time>2017-09-11T13:18:44Z</time>
      </trkpt>
      <trkpt lat="47.28291" lon="-1.53379">
        <ele>13.7</ele>
        <time>2017-09-11T13:18:53Z</time>
      </trkpt>
      <trkpt lat="47.28301" lon="-1.53378">
        <ele>13.2</ele>
        <time>2017-09-11T13:19:03Z</time>
      </trkpt>
      <trkpt lat="47.2831" lon="-1.5338">
        <ele>12.7</ele>
        <time>2017-09-11T13:19:12Z</time>
      </trkpt>
      <trkpt lat="47.2832" lon="-1.5338">
        <ele>11.8</ele>
        <time>2017-09-11T13:19:19Z</time>
      </trkpt>
      <trkpt lat="47.28329" lon="-1.53379">
        <ele>11.3</ele>
        <time>2017-09-11T13:19:25Z</time>
      </trkpt>
      <trkpt lat="47.28339" lon="-1.53378">
        <ele>10.8</ele>
        <time>2017-09-11T13:19:33Z</time>
      </trkpt>
      <trkpt lat="47.28348" lon="-1.53377">
        <ele>10.4</ele>
        <time>2017-09-11T13:19:42Z</time>
      </trkpt>
      <trkpt lat="47.28358" lon="-1.53377">
        <ele>9.9</ele>
        <time>2017-09-11T13:19:51Z</time>
      </trkpt>
      <trkpt lat="47.28368" lon="-1.53378">
        <ele>9.5</ele>
        <time>2017-09-11T13:20:01Z</time>
      </trkpt>
      <trkpt lat="47.28377" lon="-1.53376">
        <ele>9.1</ele>
        <time>2017-09-11T13:20:09Z</time>
      </trkpt>
      <trkpt lat="47.28386" lon="-1.53376">
        <ele>8.8</ele>
        <time>2017-09-11T13:20:16Z</time>
      </trkpt>
      <trkpt lat="47.28396" lon="-1.53377">
        <ele>8.6</ele>
        <time>2017-09-11T13:20:26Z</time>
      </trkpt>
      <trkpt lat="47.28401" lon="-1.53389">
        <ele>7.5</ele>
        <time>2017-09-11T13:20:53Z</time>
      </trkpt>
      <trkpt lat="47.284" lon="-1.53402">
        <ele>7.6</ele>
        <time>2017-09-11T13:21:02Z</time>
      </trkpt>
      <trkpt lat="47.28397" lon="-1.53416">
        <ele>7.9</ele>
        <time>2017-09-11T13:21:11Z</time>
      </trkpt>
      <trkpt lat="47.28396" lon="-1.5343">
        <ele>8.6</ele>
        <time>2017-09-11T13:21:19Z</time>
      </trkpt>
      <trkpt lat="47.28395" lon="-1.53444">
        <ele>9.3</ele>
        <time>2017-09-11T13:21:27Z</time>
      </trkpt>
      <trkpt lat="47.28392" lon="-1.53457">
        <ele>9.9</ele>
        <time>2017-09-11T13:21:34Z</time>
      </trkpt>
      <trkpt lat="47.28389" lon="-1.53471">
        <ele>10.7</ele>
        <time>2017-09-11T13:21:42Z</time>
      </trkpt>
      <trkpt lat="47.28386" lon="-1.53485">
        <ele>11.2</ele>
        <time>2017-09-11T13:21:50Z</time>
      </trkpt>
      <trkpt lat="47.28383" lon="-1.53499">
        <ele>11.5</ele>
        <time>2017-09-11T13:21:58Z</time>
      </trkpt>
      <trkpt lat="47.28379" lon="-1.53513">
        <ele>11.8</ele>
        <time>2017-09-11T13:22:06Z</time>
      </trkpt>
      <trkpt lat="47.28375" lon="-1.53526">
        <ele>12</ele>
        <time>2017-09-11T13:22:14Z</time>
      </trkpt>
      <trkpt lat="47.28371" lon="-1.53539">
        <ele>12.4</ele>
        <time>2017-09-11T13:22:22Z</time>
      </trkpt>
      <trkpt lat="47.28373" lon="-1.53554">
        <ele>13.2</ele>
        <time>2017-09-11T13:22:33Z</time>
      </trkpt>
      <trkpt lat="47.28376" lon="-1.53567">
        <ele>13.9</ele>
        <time>2017-09-11T13:22:42Z</time>
      </trkpt>
      <trkpt lat="47.28379" lon="-1.53581">
        <ele>14.2</ele>
        <time>2017-09-11T13:22:52Z</time>
      </trkpt>
      <trkpt lat="47.28382" lon="-1.53595">
        <ele>14.4</ele>
        <time>2017-09-11T13:23:01Z</time>
      </trkpt>
      <trkpt lat="47.28386" lon="-1.53608">
        <ele>14.6</ele>
        <time>2017-09-11T13:23:09Z</time>
      </trkpt>
      <trkpt lat="47.28388" lon="-1.53621">
        <ele>14.7</ele>
        <time>2017-09-11T13:23:18Z</time>
      </trkpt>
      <trkpt lat="47.28396" lon="-1.53631">
        <ele>15.2</ele>
        <time>2017-09-11T13:23:29Z</time>
      </trkpt>
      <trkpt lat="47.28404" lon="-1.53637">
        <ele>15.5</ele>
        <time>2017-09-11T13:23:37Z</time>
      </trkpt>
      <trkpt lat="47.28412" lon="-1.53644">
        <ele>16</ele>
        <time>2017-09-11T13:23:45Z</time>
      </trkpt>
      <trkpt lat="47.28421" lon="-1.53652">
        <ele>16</ele>
        <time>2017-09-11T13:23:54Z</time>
      </trkpt>
      <trkpt lat="47.2843" lon="-1.53659">
        <ele>15.7</ele>
        <time>2017-09-11T13:24:03Z</time>
      </trkpt>
      <trkpt lat="47.28438" lon="-1.53665">
        <ele>15.6</ele>
        <time>2017-09-11T13:24:11Z</time>
      </trkpt>
      <trkpt lat="47.28446" lon="-1.53674">
        <ele>15.6</ele>
        <time>2017-09-11T13:24:18Z</time>
      </trkpt>
      <trkpt lat="47.28453" lon="-1.53681">
        <ele>15.5</ele>
        <time>2017-09-11T13:24:25Z</time>
      </trkpt>
      <trkpt lat="47.28462" lon="-1.53686">
        <ele>15.4</ele>
        <time>2017-09-11T13:24:32Z</time>
      </trkpt>
      <trkpt lat="47.28472" lon="-1.53685">
        <ele>15.3</ele>
        <time>2017-09-11T13:24:41Z</time>
      </trkpt>
      <trkpt lat="47.28478" lon="-1.53675">
        <ele>15.2</ele>
        <time>2017-09-11T13:24:49Z</time>
      </trkpt>
      <trkpt lat="47.28483" lon="-1.53662">
        <ele>15.2</ele>
        <time>2017-09-11T13:24:57Z</time>
      </trkpt>
      <trkpt lat="47.28489" lon="-1.53651">
        <ele>15.2</ele>
        <time>2017-09-11T13:25:04Z</time>
      </trkpt>
      <trkpt lat="47.28493" lon="-1.53639">
        <ele>15.1</ele>
        <time>2017-09-11T13:25:10Z</time>
      </trkpt>
      <trkpt lat="47.28497" lon="-1.53626">
        <ele>14.8</ele>
        <time>2017-09-11T13:25:17Z</time>
      </trkpt>
      <trkpt lat="47.285" lon="-1.53613">
        <ele>14.6</ele>
        <time>2017-09-11T13:25:24Z</time>
      </trkpt>
      <trkpt lat="47.28503" lon="-1.53599">
        <ele>14.5</ele>
        <time>2017-09-11T13:25:32Z</time>
      </trkpt>
      <trkpt lat="47.28507" lon="-1.53586">
        <ele>14.1</ele>
        <time>2017-09-11T13:25:41Z</time>
      </trkpt>
      <trkpt lat="47.28512" lon="-1.53574">
        <ele>13.5</ele>
        <time>2017-09-11T13:25:49Z</time>
      </trkpt>
      <trkpt lat="47.28518" lon="-1.53564">
        <ele>12.7</ele>
        <time>2017-09-11T13:25:58Z</time>
      </trkpt>
      <trkpt lat="47.28525" lon="-1.53555">
        <ele>12.1</ele>
        <time>2017-09-11T13:26:05Z</time>
      </trkpt>
      <trkpt lat="47.28533" lon="-1.53547">
        <ele>11.8</ele>
        <time>2017-09-11T13:26:12Z</time>
      </trkpt>
      <trkpt lat="47.2854" lon="-1.53538">
        <ele>11.6</ele>
        <time>2017-09-11T13:26:19Z</time>
      </trkpt>
      <trkpt lat="47.28547" lon="-1.53527">
        <ele>11.4</ele>
        <time>2017-09-11T13:26:26Z</time>
      </trkpt>
      <trkpt lat="47.28553" lon="-1.53516">
        <ele>11.2</ele>
        <time>2017-09-11T13:26:33Z</time>
      </trkpt>
      <trkpt lat="47.28558" lon="-1.53504">
        <ele>10.9</ele>
        <time>2017-09-11T13:26:41Z</time>
      </trkpt>
      <trkpt lat="47.28562" lon="-1.53491">
        <ele>10.7</ele>
        <time>2017-09-11T13:26:49Z</time>
      </trkpt>
      <trkpt lat="47.28568" lon="-1.5348">
        <ele>10.2</ele>
        <time>2017-09-11T13:26:58Z</time>
      </trkpt>
      <trkpt lat="47.28575" lon="-1.53469">
        <ele>9.9</ele>
        <time>2017-09-11T13:27:07Z</time>
      </trkpt>
      <trkpt lat="47.28581" lon="-1.53459">
        <ele>9.8</ele>
        <time>2017-09-11T13:27:14Z</time>
      </trkpt>
      <trkpt lat="47.28589" lon="-1.53451">
        <ele>9.6</ele>
        <time>2017-09-11T13:27:23Z</time>
      </trkpt>
      <trkpt lat="47.28597" lon="-1.53445">
        <ele>9.1</ele>
        <time>2017-09-11T13:27:40Z</time>
      </trkpt>
      <trkpt lat="47.28606" lon="-1.5344">
        <ele>8.7</ele>
        <time>2017-09-11T13:27:55Z</time>
      </trkpt>
      <trkpt lat="47.28615" lon="-1.53437">
        <ele>8.1</ele>
        <time>2017-09-11T13:28:16Z</time>
      </trkpt>
      <trkpt lat="47.28625" lon="-1.53435">
        <ele>7.5</ele>
        <time>2017-09-11T13:28:38Z</time>
      </trkpt>
      <trkpt lat="47.28634" lon="-1.53436">
        <ele>7.5</ele>
        <time>2017-09-11T13:28:53Z</time>
      </trkpt>
      <trkpt lat="47.28643" lon="-1.53439">
        <ele>7.4</ele>
        <time>2017-09-11T13:29:09Z</time>
      </trkpt>
      <trkpt lat="47.28652" lon="-1.53438">
        <ele>7.3</ele>
        <time>2017-09-11T13:29:31Z</time>
      </trkpt>
      <trkpt lat="47.2866" lon="-1.5343">
        <ele>7.8</ele>
        <time>2017-09-11T13:30:15Z</time>
      </trkpt>
      <trkpt lat="47.28668" lon="-1.53438">
        <ele>6.8</ele>
        <time>2017-09-11T13:30:57Z</time>
      </trkpt>
      <trkpt lat="47.28677" lon="-1.53441">
        <ele>7.3</ele>
        <time>2017-09-11T13:31:27Z</time>
      </trkpt>
      <trkpt lat="47.28684" lon="-1.53432">
        <ele>7.3</ele>
        <time>2017-09-11T13:31:39Z</time>
      </trkpt>
      <trkpt lat="47.28692" lon="-1.53426">
        <ele>6.8</ele>
        <time>2017-09-11T13:31:55Z</time>
      </trkpt>
      <trkpt lat="47.28701" lon="-1.53422">
        <ele>6.6</ele>
        <time>2017-09-11T13:32:04Z</time>
      </trkpt>
      <trkpt lat="47.2871" lon="-1.53418">
        <ele>5.8</ele>
        <time>2017-09-11T13:32:16Z</time>
      </trkpt>
      <trkpt lat="47.2872" lon="-1.53413">
        <ele>5.2</ele>
        <time>2017-09-11T13:32:29Z</time>
      </trkpt>
      <trkpt lat="47.28728" lon="-1.53406">
        <ele>5</ele>
        <time>2017-09-11T13:32:39Z</time>
      </trkpt>
      <trkpt lat="47.28735" lon="-1.53397">
        <ele>4.8</ele>
        <time>2017-09-11T13:32:49Z</time>
      </trkpt>
      <trkpt lat="47.28744" lon="-1.53393">
        <ele>4.1</ele>
        <time>2017-09-11T13:33:03Z</time>
      </trkpt>
      <trkpt lat="47.28753" lon="-1.53394">
        <ele>3.2</ele>
        <time>2017-09-11T13:33:22Z</time>
      </trkpt>
      <trkpt lat="47.2876" lon="-1.53384">
        <ele>3.1</ele>
        <time>2017-09-11T13:33:34Z</time>
      </trkpt>
      <trkpt lat="47.28766" lon="-1.53374">
        <ele>3</ele>
        <time>2017-09-11T13:33:46Z</time>
      </trkpt>
      <trkpt lat="47.28773" lon="-1.53363">
        <ele>2.8</ele>
        <time>2017-09-11T13:33:56Z</time>
      </trkpt>
      <trkpt lat="47.2878" lon="-1.53355">
        <ele>2.6</ele>
        <time>2017-09-11T13:34:06Z</time>
      </trkpt>
      <trkpt lat="47.28789" lon="-1.53345">
        <ele>2.7</ele>
        <time>2017-09-11T13:34:15Z</time>
      </trkpt>
      <trkpt lat="47.28796" lon="-1.53336">
        <ele>2.7</ele>
        <time>2017-09-11T13:34:26Z</time>
      </trkpt>
      <trkpt lat="47.28804" lon="-1.53328">
        <ele>2.5</ele>
        <time>2017-09-11T13:34:35Z</time>
      </trkpt>
      <trkpt lat="47.28813" lon="-1.53325">
        <ele>2.3</ele>
        <time>2017-09-11T13:34:59Z</time>
      </trkpt>
      <trkpt lat="47.28822" lon="-1.53326">
        <ele>1.7</ele>
        <time>2017-09-11T13:35:13Z</time>
      </trkpt>
      <trkpt lat="47.28831" lon="-1.5333">
        <ele>1.1</ele>
        <time>2017-09-11T13:35:27Z</time>
      </trkpt>
      <trkpt lat="47.2884" lon="-1.53336">
        <ele>0.1</ele>
        <time>2017-09-11T13:35:47Z</time>
      </trkpt>
      <trkpt lat="47.28849" lon="-1.53331">
        <ele>-0.1</ele>
        <time>2017-09-11T13:35:57Z</time>
      </trkpt>
      <trkpt lat="47.28855" lon="-1.53319">
        <ele>-0.2</ele>
        <time>2017-09-11T13:36:06Z</time>
      </trkpt>
      <trkpt lat="47.2886" lon="-1.53307">
        <ele>-0.3</ele>
        <time>2017-09-11T13:36:15Z</time>
      </trkpt>
      <trkpt lat="47.2887" lon="-1.53306">
        <ele>-0.3</ele>
        <time>2017-09-11T13:36:24Z</time>
      </trkpt>
      <trkpt lat="47.2888" lon="-1.5331">
        <ele>-0.1</ele>
        <time>2017-09-11T13:36:40Z</time>
      </trkpt>
      <trkpt lat="47.28888" lon="-1.53314">
        <ele>4.6</ele>
        <time>2017-09-11T13:36:51Z</time>
      </trkpt>
      <trkpt lat="47.28896" lon="-1.53322">
        <ele>0.1</ele>
        <time>2017-09-11T13:37:02Z</time>
      </trkpt>
      <trkpt lat="47.28905" lon="-1.53329">
        <ele>0.1</ele>
        <time>2017-09-11T13:37:11Z</time>
      </trkpt>
      <trkpt lat="47.28913" lon="-1.53335">
        <ele>5.4</ele>
        <time>2017-09-11T13:37:19Z</time>
      </trkpt>
      <trkpt lat="47.28922" lon="-1.53343">
        <ele>-0.1</ele>
        <time>2017-09-11T13:37:28Z</time>
      </trkpt>
      <trkpt lat="47.28931" lon="-1.53349">
        <ele>-0.1</ele>
        <time>2017-09-11T13:37:36Z</time>
      </trkpt>
      <trkpt lat="47.2894" lon="-1.53348">
        <ele>-0.1</ele>
        <time>2017-09-11T13:38:21Z</time>
      </trkpt>
      <trkpt lat="47.28947" lon="-1.53357">
        <ele>-0.2</ele>
        <time>2017-09-11T13:39:40Z</time>
      </trkpt>
      <trkpt lat="47.28956" lon="-1.53364">
        <ele>-0.3</ele>
        <time>2017-09-11T13:39:50Z</time>
      </trkpt>
      <trkpt lat="47.28963" lon="-1.53371">
        <ele>-0.3</ele>
        <time>2017-09-11T13:39:59Z</time>
      </trkpt>
      <trkpt lat="47.28972" lon="-1.53379">
        <ele>-0.3</ele>
        <time>2017-09-11T13:40:06Z</time>
      </trkpt>
      <trkpt lat="47.28981" lon="-1.53384">
        <ele>-0.4</ele>
        <time>2017-09-11T13:40:14Z</time>
      </trkpt>
      <trkpt lat="47.28989" lon="-1.53391">
        <ele>-0.4</ele>
        <time>2017-09-11T13:40:21Z</time>
      </trkpt>
      <trkpt lat="47.28997" lon="-1.53399">
        <ele>-0.4</ele>
        <time>2017-09-11T13:40:29Z</time>
      </trkpt>
      <trkpt lat="47.29005" lon="-1.53408">
        <ele>-0.4</ele>
        <time>2017-09-11T13:40:37Z</time>
      </trkpt>
      <trkpt lat="47.29013" lon="-1.53414">
        <ele>-0.5</ele>
        <time>2017-09-11T13:40:44Z</time>
      </trkpt>
      <trkpt lat="47.29023" lon="-1.53419">
        <ele>-0.5</ele>
        <time>2017-09-11T13:40:55Z</time>
      </trkpt>
      <trkpt lat="47.29032" lon="-1.53425">
        <ele>-0.4</ele>
        <time>2017-09-11T13:41:02Z</time>
      </trkpt>
      <trkpt lat="47.2904" lon="-1.53428">
        <ele>-0.4</ele>
        <time>2017-09-11T13:41:08Z</time>
      </trkpt>
      <trkpt lat="47.29048" lon="-1.53435">
        <ele>-0.5</ele>
        <time>2017-09-11T13:41:17Z</time>
      </trkpt>
      <trkpt lat="47.29058" lon="-1.53443">
        <ele>-0.5</ele>
        <time>2017-09-11T13:41:24Z</time>
      </trkpt>
      <trkpt lat="47.29064" lon="-1.53453">
        <ele>-0.5</ele>
        <time>2017-09-11T13:41:32Z</time>
      </trkpt>
      <trkpt lat="47.29072" lon="-1.53461">
        <ele>-0.5</ele>
        <time>2017-09-11T13:41:41Z</time>
      </trkpt>
      <trkpt lat="47.29081" lon="-1.53469">
        <ele>-0.5</ele>
        <time>2017-09-11T13:41:49Z</time>
      </trkpt>
      <trkpt lat="47.29089" lon="-1.53476">
        <ele>-0.6</ele>
        <time>2017-09-11T13:41:56Z</time>
      </trkpt>
      <trkpt lat="47.29097" lon="-1.53483">
        <ele>-0.6</ele>
        <time>2017-09-11T13:42:03Z</time>
      </trkpt>
      <trkpt lat="47.29104" lon="-1.53493">
        <ele>-0.4</ele>
        <time>2017-09-11T13:42:11Z</time>
      </trkpt>
      <trkpt lat="47.29111" lon="-1.53504">
        <ele>-0.2</ele>
        <time>2017-09-11T13:42:23Z</time>
      </trkpt>
      <trkpt lat="47.29118" lon="-1.53514">
        <ele>-0.2</ele>
        <time>2017-09-11T13:42:32Z</time>
      </trkpt>
      <trkpt lat="47.29125" lon="-1.53524">
        <ele>-0.1</ele>
        <time>2017-09-11T13:42:40Z</time>
      </trkpt>
      <trkpt lat="47.29131" lon="-1.53534">
        <ele>-0.1</ele>
        <time>2017-09-11T13:42:47Z</time>
      </trkpt>
      <trkpt lat="47.29136" lon="-1.53547">
        <ele>-0.1</ele>
        <time>2017-09-11T13:42:55Z</time>
      </trkpt>
      <trkpt lat="47.29143" lon="-1.53559">
        <ele>-0.1</ele>
        <time>2017-09-11T13:43:02Z</time>
      </trkpt>
      <trkpt lat="47.29151" lon="-1.53569">
        <ele>-0.1</ele>
        <time>2017-09-11T13:43:09Z</time>
      </trkpt>
      <trkpt lat="47.29159" lon="-1.53577">
        <ele>0.1</ele>
        <time>2017-09-11T13:43:16Z</time>
      </trkpt>
      <trkpt lat="47.29166" lon="-1.53585">
        <ele>0.2</ele>
        <time>2017-09-11T13:43:24Z</time>
      </trkpt>
      <trkpt lat="47.29175" lon="-1.5359">
        <ele>0.3</ele>
        <time>2017-09-11T13:43:33Z</time>
      </trkpt>
      <trkpt lat="47.29184" lon="-1.53597">
        <ele>0.3</ele>
        <time>2017-09-11T13:43:41Z</time>
      </trkpt>
      <trkpt lat="47.29193" lon="-1.53603">
        <ele>0.4</ele>
        <time>2017-09-11T13:43:49Z</time>
      </trkpt>
      <trkpt lat="47.29201" lon="-1.5361">
        <ele>0.4</ele>
        <time>2017-09-11T13:43:57Z</time>
      </trkpt>
      <trkpt lat="47.29209" lon="-1.53617">
        <ele>0.5</ele>
        <time>2017-09-11T13:44:05Z</time>
      </trkpt>
      <trkpt lat="47.29218" lon="-1.53619">
        <ele>1</ele>
        <time>2017-09-11T13:44:21Z</time>
      </trkpt>
      <trkpt lat="47.29209" lon="-1.53615">
        <ele>-0.7</ele>
        <time>2017-09-11T13:57:04Z</time>
      </trkpt>
      <trkpt lat="47.29201" lon="-1.53609">
        <ele>-0.6</ele>
        <time>2017-09-11T13:57:14Z</time>
      </trkpt>
      <trkpt lat="47.29193" lon="-1.53601">
        <ele>-0.6</ele>
        <time>2017-09-11T13:57:23Z</time>
      </trkpt>
      <trkpt lat="47.29183" lon="-1.53603">
        <ele>-0.6</ele>
        <time>2017-09-11T13:57:33Z</time>
      </trkpt>
      <trkpt lat="47.29173" lon="-1.536">
        <ele>-0.6</ele>
        <time>2017-09-11T13:57:44Z</time>
      </trkpt>
      <trkpt lat="47.29166" lon="-1.53591">
        <ele>-0.6</ele>
        <time>2017-09-11T13:57:51Z</time>
      </trkpt>
      <trkpt lat="47.29157" lon="-1.53584">
        <ele>-0.6</ele>
        <time>2017-09-11T13:57:59Z</time>
      </trkpt>
      <trkpt lat="47.2915" lon="-1.53575">
        <ele>-0.6</ele>
        <time>2017-09-11T13:58:07Z</time>
      </trkpt>
      <trkpt lat="47.29144" lon="-1.53562">
        <ele>-0.6</ele>
        <time>2017-09-11T13:58:14Z</time>
      </trkpt>
      <trkpt lat="47.29139" lon="-1.5355">
        <ele>-0.5</ele>
        <time>2017-09-11T13:58:21Z</time>
      </trkpt>
      <trkpt lat="47.29133" lon="-1.53539">
        <ele>-0.5</ele>
        <time>2017-09-11T13:58:28Z</time>
      </trkpt>
      <trkpt lat="47.29127" lon="-1.53528">
        <ele>-0.5</ele>
        <time>2017-09-11T13:58:37Z</time>
      </trkpt>
      <trkpt lat="47.29119" lon="-1.53519">
        <ele>-0.7</ele>
        <time>2017-09-11T13:58:46Z</time>
      </trkpt>
      <trkpt lat="47.29112" lon="-1.5351">
        <ele>-1.1</ele>
        <time>2017-09-11T13:58:55Z</time>
      </trkpt>
      <trkpt lat="47.29104" lon="-1.53501">
        <ele>-1.2</ele>
        <time>2017-09-11T13:59:02Z</time>
      </trkpt>
      <trkpt lat="47.29096" lon="-1.53493">
        <ele>-1.2</ele>
        <time>2017-09-11T13:59:10Z</time>
      </trkpt>
      <trkpt lat="47.29088" lon="-1.53487">
        <ele>-1.1</ele>
        <time>2017-09-11T13:59:17Z</time>
      </trkpt>
      <trkpt lat="47.29081" lon="-1.53477">
        <ele>-1.1</ele>
        <time>2017-09-11T13:59:27Z</time>
      </trkpt>
      <trkpt lat="47.29073" lon="-1.53468">
        <ele>-1.1</ele>
        <time>2017-09-11T13:59:34Z</time>
      </trkpt>
      <trkpt lat="47.29065" lon="-1.53458">
        <ele>-1.1</ele>
        <time>2017-09-11T13:59:41Z</time>
      </trkpt>
      <trkpt lat="47.29057" lon="-1.5345">
        <ele>-1.1</ele>
        <time>2017-09-11T13:59:49Z</time>
      </trkpt>
      <trkpt lat="47.29048" lon="-1.53444">
        <ele>-1.2</ele>
        <time>2017-09-11T13:59:56Z</time>
      </trkpt>
      <trkpt lat="47.2904" lon="-1.53437">
        <ele>-1.4</ele>
        <time>2017-09-11T14:00:04Z</time>
      </trkpt>
      <trkpt lat="47.2903" lon="-1.53432">
        <ele>-1.4</ele>
        <time>2017-09-11T14:00:13Z</time>
      </trkpt>
      <trkpt lat="47.29021" lon="-1.53427">
        <ele>-1.4</ele>
        <time>2017-09-11T14:00:21Z</time>
      </trkpt>
      <trkpt lat="47.29012" lon="-1.5342">
        <ele>-1.4</ele>
        <time>2017-09-11T14:00:27Z</time>
      </trkpt>
      <trkpt lat="47.29004" lon="-1.53414">
        <ele>-1.4</ele>
        <time>2017-09-11T14:00:34Z</time>
      </trkpt>
      <trkpt lat="47.28996" lon="-1.53406">
        <ele>-1.4</ele>
        <time>2017-09-11T14:00:41Z</time>
      </trkpt>
      <trkpt lat="47.28987" lon="-1.53399">
        <ele>-1.4</ele>
        <time>2017-09-11T14:00:49Z</time>
      </trkpt>
      <trkpt lat="47.28978" lon="-1.53393">
        <ele>-1.4</ele>
        <time>2017-09-11T14:00:56Z</time>
      </trkpt>
      <trkpt lat="47.2897" lon="-1.53386">
        <ele>-1.4</ele>
        <time>2017-09-11T14:01:03Z</time>
      </trkpt>
      <trkpt lat="47.28961" lon="-1.53379">
        <ele>-1.6</ele>
        <time>2017-09-11T14:01:11Z</time>
      </trkpt>
      <trkpt lat="47.28953" lon="-1.53372">
        <ele>-1.8</ele>
        <time>2017-09-11T14:01:19Z</time>
      </trkpt>
      <trkpt lat="47.28944" lon="-1.53365">
        <ele>-1.9</ele>
        <time>2017-09-11T14:01:27Z</time>
      </trkpt>
      <trkpt lat="47.28935" lon="-1.53357">
        <ele>-2</ele>
        <time>2017-09-11T14:01:35Z</time>
      </trkpt>
      <trkpt lat="47.28927" lon="-1.53352">
        <ele>-2</ele>
        <time>2017-09-11T14:01:42Z</time>
      </trkpt>
      <trkpt lat="47.28918" lon="-1.53347">
        <ele>-2</ele>
        <time>2017-09-11T14:01:49Z</time>
      </trkpt>
      <trkpt lat="47.2891" lon="-1.5334">
        <ele>-2</ele>
        <time>2017-09-11T14:01:56Z</time>
      </trkpt>
      <trkpt lat="47.28902" lon="-1.53331">
        <ele>-2</ele>
        <time>2017-09-11T14:02:03Z</time>
      </trkpt>
      <trkpt lat="47.28894" lon="-1.53322">
        <ele>-2</ele>
        <time>2017-09-11T14:02:11Z</time>
      </trkpt>
      <trkpt lat="47.28885" lon="-1.53316">
        <ele>-1.8</ele>
        <time>2017-09-11T14:02:19Z</time>
      </trkpt>
      <trkpt lat="47.28877" lon="-1.53309">
        <ele>-1.5</ele>
        <time>2017-09-11T14:02:26Z</time>
      </trkpt>
      <trkpt lat="47.28868" lon="-1.53304">
        <ele>-1.5</ele>
        <time>2017-09-11T14:02:32Z</time>
      </trkpt>
      <trkpt lat="47.28858" lon="-1.53306">
        <ele>-1.7</ele>
        <time>2017-09-11T14:02:41Z</time>
      </trkpt>
      <trkpt lat="47.28855" lon="-1.53319">
        <ele>-1.8</ele>
        <time>2017-09-11T14:02:49Z</time>
      </trkpt>
      <trkpt lat="47.28851" lon="-1.53332">
        <ele>-1.8</ele>
        <time>2017-09-11T14:02:58Z</time>
      </trkpt>
      <trkpt lat="47.28842" lon="-1.53332">
        <ele>-2.1</ele>
        <time>2017-09-11T14:03:09Z</time>
      </trkpt>
      <trkpt lat="47.28833" lon="-1.53328">
        <ele>-2.1</ele>
        <time>2017-09-11T14:03:19Z</time>
      </trkpt>
      <trkpt lat="47.28824" lon="-1.53331">
        <ele>-0.9</ele>
        <time>2017-09-11T14:03:29Z</time>
      </trkpt>
      <trkpt lat="47.28815" lon="-1.53336">
        <ele>-0.5</ele>
        <time>2017-09-11T14:03:37Z</time>
      </trkpt>
      <trkpt lat="47.28806" lon="-1.53342">
        <ele>-0.1</ele>
        <time>2017-09-11T14:03:45Z</time>
      </trkpt>
      <trkpt lat="47.28797" lon="-1.5335">
        <ele>0.5</ele>
        <time>2017-09-11T14:03:53Z</time>
      </trkpt>
      <trkpt lat="47.28789" lon="-1.53357">
        <ele>0.9</ele>
        <time>2017-09-11T14:04:00Z</time>
      </trkpt>
      <trkpt lat="47.2878" lon="-1.53362">
        <ele>1.2</ele>
        <time>2017-09-11T14:04:07Z</time>
      </trkpt>
      <trkpt lat="47.28773" lon="-1.53369">
        <ele>1.2</ele>
        <time>2017-09-11T14:04:14Z</time>
      </trkpt>
      <trkpt lat="47.28765" lon="-1.53377">
        <ele>1.2</ele>
        <time>2017-09-11T14:04:22Z</time>
      </trkpt>
      <trkpt lat="47.28757" lon="-1.53383">
        <ele>1.3</ele>
        <time>2017-09-11T14:04:29Z</time>
      </trkpt>
      <trkpt lat="47.28749" lon="-1.53392">
        <ele>1.4</ele>
        <time>2017-09-11T14:04:36Z</time>
      </trkpt>
      <trkpt lat="47.28741" lon="-1.534">
        <ele>1.9</ele>
        <time>2017-09-11T14:04:44Z</time>
      </trkpt>
      <trkpt lat="47.28733" lon="-1.53407">
        <ele>2.5</ele>
        <time>2017-09-11T14:04:53Z</time>
      </trkpt>
      <trkpt lat="47.28724" lon="-1.53414">
        <ele>2.8</ele>
        <time>2017-09-11T14:05:04Z</time>
      </trkpt>
      <trkpt lat="47.28716" lon="-1.53421">
        <ele>3.3</ele>
        <time>2017-09-11T14:05:12Z</time>
      </trkpt>
      <trkpt lat="47.28708" lon="-1.53427">
        <ele>3.5</ele>
        <time>2017-09-11T14:05:19Z</time>
      </trkpt>
      <trkpt lat="47.28699" lon="-1.53432">
        <ele>3.7</ele>
        <time>2017-09-11T14:05:26Z</time>
      </trkpt>
      <trkpt lat="47.28689" lon="-1.53437">
        <ele>3.8</ele>
        <time>2017-09-11T14:05:33Z</time>
      </trkpt>
      <trkpt lat="47.2868" lon="-1.53438">
        <ele>4.2</ele>
        <time>2017-09-11T14:05:39Z</time>
      </trkpt>
      <trkpt lat="47.28671" lon="-1.5344">
        <ele>4.5</ele>
        <time>2017-09-11T14:05:46Z</time>
      </trkpt>
      <trkpt lat="47.28662" lon="-1.5344">
        <ele>4.8</ele>
        <time>2017-09-11T14:05:53Z</time>
      </trkpt>
      <trkpt lat="47.28652" lon="-1.53442">
        <ele>4.9</ele>
        <time>2017-09-11T14:06:01Z</time>
      </trkpt>
      <trkpt lat="47.28642" lon="-1.53445">
        <ele>5</ele>
        <time>2017-09-11T14:06:09Z</time>
      </trkpt>
      <trkpt lat="47.28632" lon="-1.53447">
        <ele>5.4</ele>
        <time>2017-09-11T14:06:17Z</time>
      </trkpt>
      <trkpt lat="47.28622" lon="-1.53446">
        <ele>5.6</ele>
        <time>2017-09-11T14:06:25Z</time>
      </trkpt>
      <trkpt lat="47.28613" lon="-1.53447">
        <ele>5.9</ele>
        <time>2017-09-11T14:06:32Z</time>
      </trkpt>
      <trkpt lat="47.28603" lon="-1.53452">
        <ele>6.1</ele>
        <time>2017-09-11T14:06:40Z</time>
      </trkpt>
      <trkpt lat="47.28594" lon="-1.53457">
        <ele>6.3</ele>
        <time>2017-09-11T14:06:46Z</time>
      </trkpt>
      <trkpt lat="47.28586" lon="-1.53463">
        <ele>6.6</ele>
        <time>2017-09-11T14:06:52Z</time>
      </trkpt>
      <trkpt lat="47.28578" lon="-1.53473">
        <ele>6.7</ele>
        <time>2017-09-11T14:06:59Z</time>
      </trkpt>
      <trkpt lat="47.28572" lon="-1.53483">
        <ele>7.1</ele>
        <time>2017-09-11T14:07:05Z</time>
      </trkpt>
      <trkpt lat="47.28566" lon="-1.53493">
        <ele>7.3</ele>
        <time>2017-09-11T14:07:11Z</time>
      </trkpt>
      <trkpt lat="47.2856" lon="-1.53505">
        <ele>7.5</ele>
        <time>2017-09-11T14:07:18Z</time>
      </trkpt>
      <trkpt lat="47.28555" lon="-1.53518">
        <ele>7.6</ele>
        <time>2017-09-11T14:07:25Z</time>
      </trkpt>
      <trkpt lat="47.28549" lon="-1.5353">
        <ele>7.7</ele>
        <time>2017-09-11T14:07:32Z</time>
      </trkpt>
      <trkpt lat="47.28543" lon="-1.53541">
        <ele>7.9</ele>
        <time>2017-09-11T14:07:39Z</time>
      </trkpt>
      <trkpt lat="47.28536" lon="-1.5355">
        <ele>8.4</ele>
        <time>2017-09-11T14:07:46Z</time>
      </trkpt>
      <trkpt lat="47.28529" lon="-1.53557">
        <ele>8.8</ele>
        <time>2017-09-11T14:07:54Z</time>
      </trkpt>
      <trkpt lat="47.28521" lon="-1.53565">
        <ele>9.4</ele>
        <time>2017-09-11T14:08:02Z</time>
      </trkpt>
      <trkpt lat="47.28514" lon="-1.53573">
        <ele>9.9</ele>
        <time>2017-09-11T14:08:10Z</time>
      </trkpt>
      <trkpt lat="47.28509" lon="-1.53585">
        <ele>10.4</ele>
        <time>2017-09-11T14:08:18Z</time>
      </trkpt>
      <trkpt lat="47.28503" lon="-1.53597">
        <ele>10.7</ele>
        <time>2017-09-11T14:08:26Z</time>
      </trkpt>
      <trkpt lat="47.28498" lon="-1.53611">
        <ele>10.8</ele>
        <time>2017-09-11T14:08:33Z</time>
      </trkpt>
      <trkpt lat="47.28494" lon="-1.53625">
        <ele>10.9</ele>
        <time>2017-09-11T14:08:40Z</time>
      </trkpt>
      <trkpt lat="47.2849" lon="-1.53638">
        <ele>11</ele>
        <time>2017-09-11T14:08:46Z</time>
      </trkpt>
      <trkpt lat="47.28487" lon="-1.53651">
        <ele>11.2</ele>
        <time>2017-09-11T14:08:53Z</time>
      </trkpt>
      <trkpt lat="47.28484" lon="-1.53664">
        <ele>11.6</ele>
        <time>2017-09-11T14:09:01Z</time>
      </trkpt>
      <trkpt lat="47.28481" lon="-1.53677">
        <ele>11.9</ele>
        <time>2017-09-11T14:09:09Z</time>
      </trkpt>
      <trkpt lat="47.28476" lon="-1.5369">
        <ele>12.6</ele>
        <time>2017-09-11T14:09:18Z</time>
      </trkpt>
      <trkpt lat="47.28467" lon="-1.5369">
        <ele>13</ele>
        <time>2017-09-11T14:09:27Z</time>
      </trkpt>
      <trkpt lat="47.28459" lon="-1.53685">
        <ele>13.2</ele>
        <time>2017-09-11T14:09:34Z</time>
      </trkpt>
      <trkpt lat="47.2845" lon="-1.5368">
        <ele>13.3</ele>
        <time>2017-09-11T14:09:41Z</time>
      </trkpt>
      <trkpt lat="47.28443" lon="-1.53672">
        <ele>14</ele>
        <time>2017-09-11T14:09:50Z</time>
      </trkpt>
      <trkpt lat="47.28434" lon="-1.53664">
        <ele>14.4</ele>
        <time>2017-09-11T14:09:58Z</time>
      </trkpt>
      <trkpt lat="47.28424" lon="-1.53659">
        <ele>14.5</ele>
        <time>2017-09-11T14:10:05Z</time>
      </trkpt>
      <trkpt lat="47.28415" lon="-1.53654">
        <ele>14.6</ele>
        <time>2017-09-11T14:10:12Z</time>
      </trkpt>
      <trkpt lat="47.28406" lon="-1.53647">
        <ele>14.7</ele>
        <time>2017-09-11T14:10:20Z</time>
      </trkpt>
      <trkpt lat="47.28396" lon="-1.53642">
        <ele>14.7</ele>
        <time>2017-09-11T14:10:28Z</time>
      </trkpt>
      <trkpt lat="47.28388" lon="-1.53638">
        <ele>14.8</ele>
        <time>2017-09-11T14:10:35Z</time>
      </trkpt>
      <trkpt lat="47.28381" lon="-1.53627">
        <ele>14.8</ele>
        <time>2017-09-11T14:10:44Z</time>
      </trkpt>
      <trkpt lat="47.28378" lon="-1.53615">
        <ele>14.8</ele>
        <time>2017-09-11T14:10:52Z</time>
      </trkpt>
      <trkpt lat="47.28376" lon="-1.536">
        <ele>14.8</ele>
        <time>2017-09-11T14:10:59Z</time>
      </trkpt>
      <trkpt lat="47.28373" lon="-1.53587">
        <ele>14.8</ele>
        <time>2017-09-11T14:11:05Z</time>
      </trkpt>
      <trkpt lat="47.28369" lon="-1.53574">
        <ele>14.8</ele>
        <time>2017-09-11T14:11:11Z</time>
      </trkpt>
      <trkpt lat="47.28366" lon="-1.5356">
        <ele>14.8</ele>
        <time>2017-09-11T14:11:17Z</time>
      </trkpt>
      <trkpt lat="47.28363" lon="-1.53545">
        <ele>14.7</ele>
        <time>2017-09-11T14:11:24Z</time>
      </trkpt>
      <trkpt lat="47.28365" lon="-1.5353">
        <ele>14.1</ele>
        <time>2017-09-11T14:11:31Z</time>
      </trkpt>
      <trkpt lat="47.28369" lon="-1.53516">
        <ele>13.8</ele>
        <time>2017-09-11T14:11:38Z</time>
      </trkpt>
      <trkpt lat="47.28373" lon="-1.53504">
        <ele>13.6</ele>
        <time>2017-09-11T14:11:44Z</time>
      </trkpt>
      <trkpt lat="47.28377" lon="-1.53492">
        <ele>13.1</ele>
        <time>2017-09-11T14:11:50Z</time>
      </trkpt>
      <trkpt lat="47.28381" lon="-1.5348">
        <ele>12.7</ele>
        <time>2017-09-11T14:11:56Z</time>
      </trkpt>
      <trkpt lat="47.28385" lon="-1.53466">
        <ele>11.9</ele>
        <time>2017-09-11T14:12:03Z</time>
      </trkpt>
      <trkpt lat="47.28389" lon="-1.53452">
        <ele>11.5</ele>
        <time>2017-09-11T14:12:10Z</time>
      </trkpt>
      <trkpt lat="47.28393" lon="-1.53438">
        <ele>11.2</ele>
        <time>2017-09-11T14:12:17Z</time>
      </trkpt>
      <trkpt lat="47.28396" lon="-1.53425">
        <ele>10.7</ele>
        <time>2017-09-11T14:12:24Z</time>
      </trkpt>
      <trkpt lat="47.28399" lon="-1.53411">
        <ele>10.4</ele>
        <time>2017-09-11T14:12:31Z</time>
      </trkpt>
      <trkpt lat="47.28402" lon="-1.53397">
        <ele>10.1</ele>
        <time>2017-09-11T14:12:38Z</time>
      </trkpt>
      <trkpt lat="47.28404" lon="-1.53384">
        <ele>9.7</ele>
        <time>2017-09-11T14:12:45Z</time>
      </trkpt>
      <trkpt lat="47.28405" lon="-1.5337">
        <ele>9.3</ele>
        <time>2017-09-11T14:12:53Z</time>
      </trkpt>
      <trkpt lat="47.28395" lon="-1.53371">
        <ele>8.6</ele>
        <time>2017-09-11T14:13:06Z</time>
      </trkpt>
      <trkpt lat="47.28386" lon="-1.53373">
        <ele>7.9</ele>
        <time>2017-09-11T14:13:16Z</time>
      </trkpt>
      <trkpt lat="47.28376" lon="-1.53376">
        <ele>7.6</ele>
        <time>2017-09-11T14:13:24Z</time>
      </trkpt>
      <trkpt lat="47.28366" lon="-1.53377">
        <ele>7.5</ele>
        <time>2017-09-11T14:13:32Z</time>
      </trkpt>
      <trkpt lat="47.28356" lon="-1.53379">
        <ele>7.5</ele>
        <time>2017-09-11T14:13:40Z</time>
      </trkpt>
      <trkpt lat="47.28347" lon="-1.53382">
        <ele>7.6</ele>
        <time>2017-09-11T14:13:48Z</time>
      </trkpt>
      <trkpt lat="47.28338" lon="-1.53386">
        <ele>7.8</ele>
        <time>2017-09-11T14:13:58Z</time>
      </trkpt>
      <trkpt lat="47.28328" lon="-1.53389">
        <ele>8.4</ele>
        <time>2017-09-11T14:14:09Z</time>
      </trkpt>
      <trkpt lat="47.28319" lon="-1.53389">
        <ele>8.9</ele>
        <time>2017-09-11T14:14:17Z</time>
      </trkpt>
      <trkpt lat="47.28309" lon="-1.53388">
        <ele>9.3</ele>
        <time>2017-09-11T14:14:25Z</time>
      </trkpt>
      <trkpt lat="47.28299" lon="-1.53389">
        <ele>10.3</ele>
        <time>2017-09-11T14:14:33Z</time>
      </trkpt>
      <trkpt lat="47.2829" lon="-1.53388">
        <ele>10.9</ele>
        <time>2017-09-11T14:14:41Z</time>
      </trkpt>
      <trkpt lat="47.28281" lon="-1.53392">
        <ele>11.2</ele>
        <time>2017-09-11T14:14:48Z</time>
      </trkpt>
      <trkpt lat="47.28271" lon="-1.53394">
        <ele>11.6</ele>
        <time>2017-09-11T14:14:57Z</time>
      </trkpt>
      <trkpt lat="47.28262" lon="-1.53391">
        <ele>12.3</ele>
        <time>2017-09-11T14:15:07Z</time>
      </trkpt>
      <trkpt lat="47.28257" lon="-1.5338">
        <ele>12.8</ele>
        <time>2017-09-11T14:15:17Z</time>
      </trkpt>
      <trkpt lat="47.28251" lon="-1.53369">
        <ele>13.2</ele>
        <time>2017-09-11T14:15:25Z</time>
      </trkpt>
      <trkpt lat="47.28244" lon="-1.5336">
        <ele>13.5</ele>
        <time>2017-09-11T14:15:34Z</time>
      </trkpt>
      <trkpt lat="47.28237" lon="-1.53351">
        <ele>13.4</ele>
        <time>2017-09-11T14:15:45Z</time>
      </trkpt>
      <trkpt lat="47.28236" lon="-1.53336">
        <ele>13.5</ele>
        <time>2017-09-11T14:15:55Z</time>
      </trkpt>
      <trkpt lat="47.28233" lon="-1.53322">
        <ele>13.7</ele>
        <time>2017-09-11T14:16:04Z</time>
      </trkpt>
      <trkpt lat="47.28229" lon="-1.53309">
        <ele>13.8</ele>
        <time>2017-09-11T14:16:12Z</time>
      </trkpt>
      <trkpt lat="47.28224" lon="-1.53297">
        <ele>13.9</ele>
        <time>2017-09-11T14:16:20Z</time>
      </trkpt>
      <trkpt lat="47.28222" lon="-1.53284">
        <ele>14.1</ele>
        <time>2017-09-11T14:16:28Z</time>
      </trkpt>
      <trkpt lat="47.2822" lon="-1.53271">
        <ele>14.4</ele>
        <time>2017-09-11T14:16:35Z</time>
      </trkpt>
      <trkpt lat="47.28219" lon="-1.53255">
        <ele>14.6</ele>
        <time>2017-09-11T14:16:43Z</time>
      </trkpt>
      <trkpt lat="47.28216" lon="-1.5324">
        <ele>14.7</ele>
        <time>2017-09-11T14:16:50Z</time>
      </trkpt>
      <trkpt lat="47.28215" lon="-1.53226">
        <ele>14.8</ele>
        <time>2017-09-11T14:16:57Z</time>
      </trkpt>
      <trkpt lat="47.28213" lon="-1.53213">
        <ele>14.9</ele>
        <time>2017-09-11T14:17:05Z</time>
      </trkpt>
      <trkpt lat="47.28208" lon="-1.532">
        <ele>14.8</ele>
        <time>2017-09-11T14:17:14Z</time>
      </trkpt>
      <trkpt lat="47.28204" lon="-1.53188">
        <ele>14.7</ele>
        <time>2017-09-11T14:17:22Z</time>
      </trkpt>
      <trkpt lat="47.28199" lon="-1.53176">
        <ele>14.6</ele>
        <time>2017-09-11T14:17:29Z</time>
      </trkpt>
      <trkpt lat="47.28194" lon="-1.53164">
        <ele>14.1</ele>
        <time>2017-09-11T14:17:37Z</time>
      </trkpt>
      <trkpt lat="47.2819" lon="-1.53152">
        <ele>13.9</ele>
        <time>2017-09-11T14:17:44Z</time>
      </trkpt>
      <trkpt lat="47.28185" lon="-1.53141">
        <ele>13.7</ele>
        <time>2017-09-11T14:17:51Z</time>
      </trkpt>
      <trkpt lat="47.2818" lon="-1.53128">
        <ele>13.6</ele>
        <time>2017-09-11T14:17:58Z</time>
      </trkpt>
      <trkpt lat="47.28176" lon="-1.53116">
        <ele>13.6</ele>
        <time>2017-09-11T14:18:06Z</time>
      </trkpt>
      <trkpt lat="47.28171" lon="-1.53102">
        <ele>13.6</ele>
        <time>2017-09-11T14:18:14Z</time>
      </trkpt>
      <trkpt lat="47.28166" lon="-1.5309">
        <ele>13.7</ele>
        <time>2017-09-11T14:18:21Z</time>
      </trkpt>
      <trkpt lat="47.28159" lon="-1.53082">
        <ele>13.7</ele>
        <time>2017-09-11T14:18:27Z</time>
      </trkpt>
      <trkpt lat="47.2815" lon="-1.53075">
        <ele>13.7</ele>
        <time>2017-09-11T14:18:35Z</time>
      </trkpt>
      <trkpt lat="47.28141" lon="-1.53071">
        <ele>13.7</ele>
        <time>2017-09-11T14:18:44Z</time>
      </trkpt>
      <trkpt lat="47.28132" lon="-1.53069">
        <ele>13.9</ele>
        <time>2017-09-11T14:18:53Z</time>
      </trkpt>
      <trkpt lat="47.28123" lon="-1.53067">
        <ele>14.3</ele>
        <time>2017-09-11T14:19:01Z</time>
      </trkpt>
      <trkpt lat="47.28114" lon="-1.53067">
        <ele>14.5</ele>
        <time>2017-09-11T14:19:08Z</time>
      </trkpt>
      <trkpt lat="47.28104" lon="-1.53066">
        <ele>14.8</ele>
        <time>2017-09-11T14:19:16Z</time>
      </trkpt>
      <trkpt lat="47.28094" lon="-1.53066">
        <ele>15.1</ele>
        <time>2017-09-11T14:19:24Z</time>
      </trkpt>
      <trkpt lat="47.28084" lon="-1.53066">
        <ele>15.3</ele>
        <time>2017-09-11T14:19:33Z</time>
      </trkpt>
      <trkpt lat="47.28078" lon="-1.53055">
        <ele>15.3</ele>
        <time>2017-09-11T14:19:41Z</time>
      </trkpt>
      <trkpt lat="47.28074" lon="-1.53042">
        <ele>15.3</ele>
        <time>2017-09-11T14:19:48Z</time>
      </trkpt>
      <trkpt lat="47.28072" lon="-1.53028">
        <ele>15.4</ele>
        <time>2017-09-11T14:19:56Z</time>
      </trkpt>
      <trkpt lat="47.28069" lon="-1.53014">
        <ele>15.3</ele>
        <time>2017-09-11T14:20:04Z</time>
      </trkpt>
      <trkpt lat="47.28066" lon="-1.53001">
        <ele>15.3</ele>
        <time>2017-09-11T14:20:10Z</time>
      </trkpt>
      <trkpt lat="47.28063" lon="-1.52987">
        <ele>15.3</ele>
        <time>2017-09-11T14:20:17Z</time>
      </trkpt>
      <trkpt lat="47.2806" lon="-1.52974">
        <ele>15.3</ele>
        <time>2017-09-11T14:20:26Z</time>
      </trkpt>
      <trkpt lat="47.28054" lon="-1.52962">
        <ele>14.7</ele>
        <time>2017-09-11T14:20:35Z</time>
      </trkpt>
      <trkpt lat="47.28047" lon="-1.52953">
        <ele>14.4</ele>
        <time>2017-09-11T14:20:43Z</time>
      </trkpt>
      <trkpt lat="47.2804" lon="-1.52946">
        <ele>14.2</ele>
        <time>2017-09-11T14:20:50Z</time>
      </trkpt>
      <trkpt lat="47.28031" lon="-1.52939">
        <ele>14</ele>
        <time>2017-09-11T14:20:57Z</time>
      </trkpt>
      <trkpt lat="47.28022" lon="-1.52934">
        <ele>13.8</ele>
        <time>2017-09-11T14:21:05Z</time>
      </trkpt>
      <trkpt lat="47.28013" lon="-1.52931">
        <ele>13.8</ele>
        <time>2017-09-11T14:21:13Z</time>
      </trkpt>
      <trkpt lat="47.28003" lon="-1.52931">
        <ele>13.8</ele>
        <time>2017-09-11T14:21:22Z</time>
      </trkpt>
      <trkpt lat="47.27993" lon="-1.5293">
        <ele>13.8</ele>
        <time>2017-09-11T14:21:31Z</time>
      </trkpt>
      <trkpt lat="47.27985" lon="-1.52937">
        <ele>13.6</ele>
        <time>2017-09-11T14:21:40Z</time>
      </trkpt>
      <trkpt lat="47.27979" lon="-1.52949">
        <ele>13.4</ele>
        <time>2017-09-11T14:21:49Z</time>
      </trkpt>
      <trkpt lat="47.27972" lon="-1.5296">
        <ele>13.3</ele>
        <time>2017-09-11T14:21:56Z</time>
      </trkpt>
      <trkpt lat="47.27967" lon="-1.52971">
        <ele>13.2</ele>
        <time>2017-09-11T14:22:03Z</time>
      </trkpt>
      <trkpt lat="47.2796" lon="-1.52983">
        <ele>13.1</ele>
        <time>2017-09-11T14:22:10Z</time>
      </trkpt>
      <trkpt lat="47.27955" lon="-1.52994">
        <ele>13.1</ele>
        <time>2017-09-11T14:22:17Z</time>
      </trkpt>
      <trkpt lat="47.2795" lon="-1.53005">
        <ele>13.2</ele>
        <time>2017-09-11T14:22:24Z</time>
      </trkpt>
      <trkpt lat="47.27943" lon="-1.53014">
        <ele>13.2</ele>
        <time>2017-09-11T14:22:31Z</time>
      </trkpt>
      <trkpt lat="47.27936" lon="-1.53025">
        <ele>13.3</ele>
        <time>2017-09-11T14:22:38Z</time>
      </trkpt>
      <trkpt lat="47.27931" lon="-1.53035">
        <ele>13.4</ele>
        <time>2017-09-11T14:22:45Z</time>
      </trkpt>
      <trkpt lat="47.27925" lon="-1.53048">
        <ele>13.5</ele>
        <time>2017-09-11T14:22:53Z</time>
      </trkpt>
      <trkpt lat="47.27918" lon="-1.53057">
        <ele>13.5</ele>
        <time>2017-09-11T14:23:00Z</time>
      </trkpt>
      <trkpt lat="47.27917" lon="-1.53071">
        <ele>13.3</ele>
        <time>2017-09-11T14:23:09Z</time>
      </trkpt>
      <trkpt lat="47.27919" lon="-1.53085">
        <ele>13.2</ele>
        <time>2017-09-11T14:23:17Z</time>
      </trkpt>
      <trkpt lat="47.27918" lon="-1.531">
        <ele>13.2</ele>
        <time>2017-09-11T14:23:24Z</time>
      </trkpt>
      <trkpt lat="47.27913" lon="-1.53113">
        <ele>13.1</ele>
        <time>2017-09-11T14:23:31Z</time>
      </trkpt>
      <trkpt lat="47.27904" lon="-1.5312">
        <ele>12.7</ele>
        <time>2017-09-11T14:23:39Z</time>
      </trkpt>
      <trkpt lat="47.27899" lon="-1.53131">
        <ele>9.6</ele>
        <time>2017-09-11T14:26:33Z</time>
      </trkpt>
      <trkpt lat="47.27896" lon="-1.53118">
        <ele>9.7</ele>
        <time>2017-09-11T14:28:49Z</time>
      </trkpt>
      <trkpt lat="47.27886" lon="-1.53119">
        <ele>9.9</ele>
        <time>2017-09-11T14:29:44Z</time>
      </trkpt>
      <trkpt lat="47.27878" lon="-1.53126">
        <ele>9.8</ele>
        <time>2017-09-11T14:29:53Z</time>
      </trkpt>
      <trkpt lat="47.27871" lon="-1.53134">
        <ele>8.9</ele>
        <time>2017-09-11T14:30:02Z</time>
      </trkpt>
      <trkpt lat="47.27863" lon="-1.53144">
        <ele>8.2</ele>
        <time>2017-09-11T14:30:10Z</time>
      </trkpt>
      <trkpt lat="47.27856" lon="-1.53151">
        <ele>7.5</ele>
        <time>2017-09-11T14:30:19Z</time>
      </trkpt>
      <trkpt lat="47.27847" lon="-1.53155">
        <ele>6.3</ele>
        <time>2017-09-11T14:30:29Z</time>
      </trkpt>
      <trkpt lat="47.27837" lon="-1.53158">
        <ele>5</ele>
        <time>2017-09-11T14:30:40Z</time>
      </trkpt>
      <trkpt lat="47.27829" lon="-1.53163">
        <ele>4.5</ele>
        <time>2017-09-11T14:30:48Z</time>
      </trkpt>
      <trkpt lat="47.2782" lon="-1.53168">
        <ele>4.1</ele>
        <time>2017-09-11T14:30:56Z</time>
      </trkpt>
      <trkpt lat="47.27811" lon="-1.53173">
        <ele>3.8</ele>
        <time>2017-09-11T14:31:04Z</time>
      </trkpt>
      <trkpt lat="47.27802" lon="-1.53179">
        <ele>3.7</ele>
        <time>2017-09-11T14:31:12Z</time>
      </trkpt>
      <trkpt lat="47.27793" lon="-1.53184">
        <ele>3.9</ele>
        <time>2017-09-11T14:31:20Z</time>
      </trkpt>
      <trkpt lat="47.27783" lon="-1.53187">
        <ele>4</ele>
        <time>2017-09-11T14:31:28Z</time>
      </trkpt>
      <trkpt lat="47.27774" lon="-1.53192">
        <ele>4.2</ele>
        <time>2017-09-11T14:31:36Z</time>
      </trkpt>
      <trkpt lat="47.27764" lon="-1.53196">
        <ele>4.7</ele>
        <time>2017-09-11T14:31:44Z</time>
      </trkpt>
      <trkpt lat="47.27755" lon="-1.53203">
        <ele>5.1</ele>
        <time>2017-09-11T14:31:51Z</time>
      </trkpt>
      <trkpt lat="47.27749" lon="-1.53213">
        <ele>5.4</ele>
        <time>2017-09-11T14:31:59Z</time>
      </trkpt>
      <trkpt lat="47.27748" lon="-1.53227">
        <ele>5.5</ele>
        <time>2017-09-11T14:32:09Z</time>
      </trkpt>
      <trkpt lat="47.27751" lon="-1.53241">
        <ele>5.6</ele>
        <time>2017-09-11T14:32:19Z</time>
      </trkpt>
      <trkpt lat="47.27753" lon="-1.53255">
        <ele>5.6</ele>
        <time>2017-09-11T14:32:28Z</time>
      </trkpt>
      <trkpt lat="47.27755" lon="-1.53269">
        <ele>5.8</ele>
        <time>2017-09-11T14:32:36Z</time>
      </trkpt>
      <trkpt lat="47.27758" lon="-1.53283">
        <ele>6.1</ele>
        <time>2017-09-11T14:32:44Z</time>
      </trkpt>
      <trkpt lat="47.27762" lon="-1.53296">
        <ele>6.3</ele>
        <time>2017-09-11T14:32:52Z</time>
      </trkpt>
      <trkpt lat="47.27764" lon="-1.53309">
        <ele>6.3</ele>
        <time>2017-09-11T14:33:00Z</time>
      </trkpt>
      <trkpt lat="47.27768" lon="-1.53323">
        <ele>6.4</ele>
        <time>2017-09-11T14:33:08Z</time>
      </trkpt>
      <trkpt lat="47.27771" lon="-1.53336">
        <ele>6.6</ele>
        <time>2017-09-11T14:33:15Z</time>
      </trkpt>
      <trkpt lat="47.27773" lon="-1.5335">
        <ele>6.8</ele>
        <time>2017-09-11T14:33:22Z</time>
      </trkpt>
      <trkpt lat="47.27776" lon="-1.53363">
        <ele>6.9</ele>
        <time>2017-09-11T14:33:29Z</time>
      </trkpt>
      <trkpt lat="47.27778" lon="-1.53377">
        <ele>7.2</ele>
        <time>2017-09-11T14:33:37Z</time>
      </trkpt>
      <trkpt lat="47.27781" lon="-1.53392">
        <ele>7.3</ele>
        <time>2017-09-11T14:33:45Z</time>
      </trkpt>
      <trkpt lat="47.27784" lon="-1.53406">
        <ele>7.9</ele>
        <time>2017-09-11T14:33:53Z</time>
      </trkpt>
      <trkpt lat="47.27787" lon="-1.53418">
        <ele>8.4</ele>
        <time>2017-09-11T14:34:01Z</time>
      </trkpt>
      <trkpt lat="47.27789" lon="-1.53432">
        <ele>8.8</ele>
        <time>2017-09-11T14:34:09Z</time>
      </trkpt>
      <trkpt lat="47.27792" lon="-1.53446">
        <ele>9.3</ele>
        <time>2017-09-11T14:34:18Z</time>
      </trkpt>
      <trkpt lat="47.27794" lon="-1.53459">
        <ele>9.8</ele>
        <time>2017-09-11T14:34:26Z</time>
      </trkpt>
      <trkpt lat="47.27797" lon="-1.53472">
        <ele>10.6</ele>
        <time>2017-09-11T14:34:34Z</time>
      </trkpt>
      <trkpt lat="47.27799" lon="-1.53485">
        <ele>12</ele>
        <time>2017-09-11T14:34:42Z</time>
      </trkpt>
      <trkpt lat="47.278" lon="-1.53499">
        <ele>12.7</ele>
        <time>2017-09-11T14:34:51Z</time>
      </trkpt>
      <trkpt lat="47.278" lon="-1.53513">
        <ele>12.7</ele>
        <time>2017-09-11T14:35:00Z</time>
      </trkpt>
      <trkpt lat="47.278" lon="-1.53528">
        <ele>12.7</ele>
        <time>2017-09-11T14:35:07Z</time>
      </trkpt>
      <trkpt lat="47.27801" lon="-1.53541">
        <ele>12.7</ele>
        <time>2017-09-11T14:35:14Z</time>
      </trkpt>
      <trkpt lat="47.27803" lon="-1.53554">
        <ele>12.8</ele>
        <time>2017-09-11T14:35:21Z</time>
      </trkpt>
      <trkpt lat="47.27805" lon="-1.53568">
        <ele>13</ele>
        <time>2017-09-11T14:35:29Z</time>
      </trkpt>
      <trkpt lat="47.27806" lon="-1.53582">
        <ele>13</ele>
        <time>2017-09-11T14:35:36Z</time>
      </trkpt>
      <trkpt lat="47.27807" lon="-1.53596">
        <ele>13</ele>
        <time>2017-09-11T14:35:43Z</time>
      </trkpt>
      <trkpt lat="47.27808" lon="-1.53611">
        <ele>13</ele>
        <time>2017-09-11T14:35:50Z</time>
      </trkpt>
      <trkpt lat="47.2781" lon="-1.53625">
        <ele>13</ele>
        <time>2017-09-11T14:35:57Z</time>
      </trkpt>
      <trkpt lat="47.27811" lon="-1.53639">
        <ele>13</ele>
        <time>2017-09-11T14:36:04Z</time>
      </trkpt>
      <trkpt lat="47.27811" lon="-1.53653">
        <ele>13</ele>
        <time>2017-09-11T14:36:11Z</time>
      </trkpt>
      <trkpt lat="47.2781" lon="-1.53667">
        <ele>12.8</ele>
        <time>2017-09-11T14:36:18Z</time>
      </trkpt>
      <trkpt lat="47.2781" lon="-1.53681">
        <ele>12.6</ele>
        <time>2017-09-11T14:36:26Z</time>
      </trkpt>
      <trkpt lat="47.27803" lon="-1.5369">
        <ele>11.5</ele>
        <time>2017-09-11T14:36:39Z</time>
      </trkpt>
      <trkpt lat="47.27793" lon="-1.53688">
        <ele>10.9</ele>
        <time>2017-09-11T14:36:50Z</time>
      </trkpt>
      <trkpt lat="47.27785" lon="-1.53682">
        <ele>10.7</ele>
        <time>2017-09-11T14:36:59Z</time>
      </trkpt>
      <trkpt lat="47.27776" lon="-1.53677">
        <ele>10.8</ele>
        <time>2017-09-11T14:37:08Z</time>
      </trkpt>
      <trkpt lat="47.27768" lon="-1.53671">
        <ele>10.8</ele>
        <time>2017-09-11T14:37:16Z</time>
      </trkpt>
      <trkpt lat="47.2776" lon="-1.53661">
        <ele>10.6</ele>
        <time>2017-09-11T14:37:25Z</time>
      </trkpt>
      <trkpt lat="47.27754" lon="-1.53652">
        <ele>10.3</ele>
        <time>2017-09-11T14:37:33Z</time>
      </trkpt>
      <trkpt lat="47.27748" lon="-1.53642">
        <ele>10.1</ele>
        <time>2017-09-11T14:37:41Z</time>
      </trkpt>
      <trkpt lat="47.27741" lon="-1.53632">
        <ele>9.8</ele>
        <time>2017-09-11T14:37:49Z</time>
      </trkpt>
      <trkpt lat="47.27736" lon="-1.53621">
        <ele>9.4</ele>
        <time>2017-09-11T14:37:58Z</time>
      </trkpt>
      <trkpt lat="47.27732" lon="-1.53608">
        <ele>8.7</ele>
        <time>2017-09-11T14:38:07Z</time>
      </trkpt>
      <trkpt lat="47.27731" lon="-1.53595">
        <ele>7.9</ele>
        <time>2017-09-11T14:38:17Z</time>
      </trkpt>
      <trkpt lat="47.27729" lon="-1.53582">
        <ele>6.9</ele>
        <time>2017-09-11T14:38:25Z</time>
      </trkpt>
      <trkpt lat="47.27721" lon="-1.53573">
        <ele>5.7</ele>
        <time>2017-09-11T14:38:38Z</time>
      </trkpt>
      <trkpt lat="47.27712" lon="-1.53573">
        <ele>5.4</ele>
        <time>2017-09-11T14:38:47Z</time>
      </trkpt>
      <trkpt lat="47.27703" lon="-1.53575">
        <ele>5.5</ele>
        <time>2017-09-11T14:38:55Z</time>
      </trkpt>
      <trkpt lat="47.27694" lon="-1.53576">
        <ele>5.5</ele>
        <time>2017-09-11T14:39:02Z</time>
      </trkpt>
      <trkpt lat="47.27685" lon="-1.53573">
        <ele>5.6</ele>
        <time>2017-09-11T14:39:12Z</time>
      </trkpt>
      <trkpt lat="47.27675" lon="-1.53576">
        <ele>5.8</ele>
        <time>2017-09-11T14:39:21Z</time>
      </trkpt>
      <trkpt lat="47.27665" lon="-1.53577">
        <ele>6.7</ele>
        <time>2017-09-11T14:39:30Z</time>
      </trkpt>
      <trkpt lat="47.27657" lon="-1.53572">
        <ele>7.6</ele>
        <time>2017-09-11T14:39:39Z</time>
      </trkpt>
      <trkpt lat="47.27652" lon="-1.5356">
        <ele>8.7</ele>
        <time>2017-09-11T14:39:50Z</time>
      </trkpt>
      <trkpt lat="47.27649" lon="-1.53545">
        <ele>9.1</ele>
        <time>2017-09-11T14:39:59Z</time>
      </trkpt>
      <trkpt lat="47.27647" lon="-1.53532">
        <ele>9.1</ele>
        <time>2017-09-11T14:40:08Z</time>
      </trkpt>
      <trkpt lat="47.27644" lon="-1.53518">
        <ele>9.5</ele>
        <time>2017-09-11T14:40:18Z</time>
      </trkpt>
      <trkpt lat="47.27643" lon="-1.53504">
        <ele>9.6</ele>
        <time>2017-09-11T14:40:26Z</time>
      </trkpt>
      <trkpt lat="47.27641" lon="-1.5349">
        <ele>9.3</ele>
        <time>2017-09-11T14:40:33Z</time>
      </trkpt>
      <trkpt lat="47.2764" lon="-1.53477">
        <ele>9</ele>
        <time>2017-09-11T14:40:40Z</time>
      </trkpt>
      <trkpt lat="47.27638" lon="-1.53463">
        <ele>8.8</ele>
        <time>2017-09-11T14:40:47Z</time>
      </trkpt>
      <trkpt lat="47.27637" lon="-1.53449">
        <ele>8.6</ele>
        <time>2017-09-11T14:40:55Z</time>
      </trkpt>
      <trkpt lat="47.27634" lon="-1.53435">
        <ele>8.3</ele>
        <time>2017-09-11T14:41:03Z</time>
      </trkpt>
      <trkpt lat="47.27634" lon="-1.53421">
        <ele>7.9</ele>
        <time>2017-09-11T14:41:11Z</time>
      </trkpt>
      <trkpt lat="47.27633" lon="-1.53406">
        <ele>7.6</ele>
        <time>2017-09-11T14:41:20Z</time>
      </trkpt>
      <trkpt lat="47.27632" lon="-1.53391">
        <ele>7</ele>
        <time>2017-09-11T14:41:29Z</time>
      </trkpt>
      <trkpt lat="47.27631" lon="-1.53376">
        <ele>6.8</ele>
        <time>2017-09-11T14:41:36Z</time>
      </trkpt>
      <trkpt lat="47.27627" lon="-1.53363">
        <ele>6.7</ele>
        <time>2017-09-11T14:41:42Z</time>
      </trkpt>
      <trkpt lat="47.27624" lon="-1.53349">
        <ele>6.5</ele>
        <time>2017-09-11T14:41:50Z</time>
      </trkpt>
      <trkpt lat="47.27622" lon="-1.53334">
        <ele>6.4</ele>
        <time>2017-09-11T14:41:57Z</time>
      </trkpt>
      <trkpt lat="47.27623" lon="-1.5332">
        <ele>5.6</ele>
        <time>2017-09-11T14:42:05Z</time>
      </trkpt>
      <trkpt lat="47.27625" lon="-1.53306">
        <ele>5</ele>
        <time>2017-09-11T14:42:19Z</time>
      </trkpt>
      <trkpt lat="47.27627" lon="-1.53292">
        <ele>4.8</ele>
        <time>2017-09-11T14:42:29Z</time>
      </trkpt>
      <trkpt lat="47.27628" lon="-1.53279">
        <ele>4.3</ele>
        <time>2017-09-11T14:42:38Z</time>
      </trkpt>
      <trkpt lat="47.27628" lon="-1.53265">
        <ele>3.7</ele>
        <time>2017-09-11T14:42:46Z</time>
      </trkpt>
      <trkpt lat="47.27627" lon="-1.5325">
        <ele>3.1</ele>
        <time>2017-09-11T14:42:55Z</time>
      </trkpt>
      <trkpt lat="47.27625" lon="-1.53236">
        <ele>2.7</ele>
        <time>2017-09-11T14:43:02Z</time>
      </trkpt>
      <trkpt lat="47.27622" lon="-1.53222">
        <ele>2.3</ele>
        <time>2017-09-11T14:43:10Z</time>
      </trkpt>
      <trkpt lat="47.27618" lon="-1.53209">
        <ele>2</ele>
        <time>2017-09-11T14:43:19Z</time>
      </trkpt>
      <trkpt lat="47.27612" lon="-1.53198">
        <ele>1.9</ele>
        <time>2017-09-11T14:43:28Z</time>
      </trkpt>
      <trkpt lat="47.27607" lon="-1.53185">
        <ele>1.9</ele>
        <time>2017-09-11T14:43:36Z</time>
      </trkpt>
      <trkpt lat="47.27602" lon="-1.53172">
        <ele>2.1</ele>
        <time>2017-09-11T14:43:42Z</time>
      </trkpt>
      <trkpt lat="47.27599" lon="-1.53159">
        <ele>1.8</ele>
        <time>2017-09-11T14:43:49Z</time>
      </trkpt>
      <trkpt lat="47.27596" lon="-1.53146">
        <ele>1.6</ele>
        <time>2017-09-11T14:43:56Z</time>
      </trkpt>
      <trkpt lat="47.27594" lon="-1.53132">
        <ele>1.4</ele>
        <time>2017-09-11T14:44:04Z</time>
      </trkpt>
      <trkpt lat="47.27592" lon="-1.53118">
        <ele>1.3</ele>
        <time>2017-09-11T14:44:12Z</time>
      </trkpt>
      <trkpt lat="47.2759" lon="-1.53105">
        <ele>1.2</ele>
        <time>2017-09-11T14:44:20Z</time>
      </trkpt>
      <trkpt lat="47.27588" lon="-1.53092">
        <ele>1.1</ele>
        <time>2017-09-11T14:44:28Z</time>
      </trkpt>
      <trkpt lat="47.27586" lon="-1.53079">
        <ele>1</ele>
        <time>2017-09-11T14:44:35Z</time>
      </trkpt>
      <trkpt lat="47.2758" lon="-1.53068">
        <ele>0.5</ele>
        <time>2017-09-11T14:44:44Z</time>
      </trkpt>
      <trkpt lat="47.27571" lon="-1.53062">
        <ele>0.3</ele>
        <time>2017-09-11T14:44:53Z</time>
      </trkpt>
      <trkpt lat="47.27562" lon="-1.53063">
        <ele>0.1</ele>
        <time>2017-09-11T14:45:01Z</time>
      </trkpt>
      <trkpt lat="47.27553" lon="-1.53066">
        <ele>6.8</ele>
        <time>2017-09-11T14:45:10Z</time>
      </trkpt>
      <trkpt lat="47.27544" lon="-1.53073">
        <ele>-0.1</ele>
        <time>2017-09-11T14:45:20Z</time>
      </trkpt>
      <trkpt lat="47.27534" lon="-1.53077">
        <ele>-0.1</ele>
        <time>2017-09-11T14:45:28Z</time>
      </trkpt>
      <trkpt lat="47.27525" lon="-1.53081">
        <ele>-0.1</ele>
        <time>2017-09-11T14:45:36Z</time>
      </trkpt>
      <trkpt lat="47.27516" lon="-1.53087">
        <ele>-0.1</ele>
        <time>2017-09-11T14:45:43Z</time>
      </trkpt>
      <trkpt lat="47.27508" lon="-1.53093">
        <ele>6.9</ele>
        <time>2017-09-11T14:45:50Z</time>
      </trkpt>
      <trkpt lat="47.275" lon="-1.53098">
        <ele>7</ele>
        <time>2017-09-11T14:45:59Z</time>
      </trkpt>
      <trkpt lat="47.27491" lon="-1.53105">
        <ele>6.9</ele>
        <time>2017-09-11T14:46:07Z</time>
      </trkpt>
      <trkpt lat="47.27483" lon="-1.53111">
        <ele>-0.2</ele>
        <time>2017-09-11T14:46:17Z</time>
      </trkpt>
      <trkpt lat="47.27474" lon="-1.53115">
        <ele>-0.4</ele>
        <time>2017-09-11T14:46:25Z</time>
      </trkpt>
      <trkpt lat="47.27465" lon="-1.5312">
        <ele>-0.5</ele>
        <time>2017-09-11T14:46:32Z</time>
      </trkpt>
      <trkpt lat="47.27457" lon="-1.5313">
        <ele>-1</ele>
        <time>2017-09-11T14:46:39Z</time>
      </trkpt>
      <trkpt lat="47.27449" lon="-1.53137">
        <ele>-1.3</ele>
        <time>2017-09-11T14:46:49Z</time>
      </trkpt>
      <trkpt lat="47.27442" lon="-1.53147">
        <ele>-1.7</ele>
        <time>2017-09-11T14:46:57Z</time>
      </trkpt>
      <trkpt lat="47.27435" lon="-1.53156">
        <ele>-2.1</ele>
        <time>2017-09-11T14:47:05Z</time>
      </trkpt>
      <trkpt lat="47.27427" lon="-1.53164">
        <ele>-2</ele>
        <time>2017-09-11T14:47:14Z</time>
      </trkpt>
      <trkpt lat="47.27418" lon="-1.53172">
        <ele>-1.6</ele>
        <time>2017-09-11T14:47:22Z</time>
      </trkpt>
      <trkpt lat="47.2741" lon="-1.53179">
        <ele>-1.3</ele>
        <time>2017-09-11T14:47:29Z</time>
      </trkpt>
      <trkpt lat="47.27401" lon="-1.53185">
        <ele>-1.1</ele>
        <time>2017-09-11T14:47:36Z</time>
      </trkpt>
      <trkpt lat="47.27392" lon="-1.53192">
        <ele>-0.5</ele>
        <time>2017-09-11T14:47:44Z</time>
      </trkpt>
      <trkpt lat="47.27385" lon="-1.53201">
        <ele>-0.3</ele>
        <time>2017-09-11T14:47:52Z</time>
      </trkpt>
      <trkpt lat="47.27379" lon="-1.53212">
        <ele>-0.3</ele>
        <time>2017-09-11T14:48:02Z</time>
      </trkpt>
      <trkpt lat="47.27376" lon="-1.53226">
        <ele>-0.5</ele>
        <time>2017-09-11T14:48:11Z</time>
      </trkpt>
      <trkpt lat="47.27375" lon="-1.5324">
        <ele>-0.2</ele>
        <time>2017-09-11T14:48:21Z</time>
      </trkpt>
      <trkpt lat="47.27374" lon="-1.53254">
        <ele>0.1</ele>
        <time>2017-09-11T14:48:32Z</time>
      </trkpt>
      <trkpt lat="47.27373" lon="-1.53269">
        <ele>-0.1</ele>
        <time>2017-09-11T14:48:41Z</time>
      </trkpt>
      <trkpt lat="47.27372" lon="-1.53282">
        <ele>-0.4</ele>
        <time>2017-09-11T14:48:50Z</time>
      </trkpt>
      <trkpt lat="47.27371" lon="-1.53296">
        <ele>-0.5</ele>
        <time>2017-09-11T14:48:57Z</time>
      </trkpt>
      <trkpt lat="47.27369" lon="-1.53309">
        <ele>-0.2</ele>
        <time>2017-09-11T14:49:05Z</time>
      </trkpt>
      <trkpt lat="47.27368" lon="-1.53323">
        <ele>0.4</ele>
        <time>2017-09-11T14:49:12Z</time>
      </trkpt>
      <trkpt lat="47.27365" lon="-1.53337">
        <ele>0.7</ele>
        <time>2017-09-11T14:49:19Z</time>
      </trkpt>
      <trkpt lat="47.27362" lon="-1.53351">
        <ele>1</ele>
        <time>2017-09-11T14:49:27Z</time>
      </trkpt>
      <trkpt lat="47.27358" lon="-1.53364">
        <ele>1.2</ele>
        <time>2017-09-11T14:49:35Z</time>
      </trkpt>
      <trkpt lat="47.27355" lon="-1.53377">
        <ele>1.6</ele>
        <time>2017-09-11T14:49:44Z</time>
      </trkpt>
      <trkpt lat="47.27353" lon="-1.5339">
        <ele>2.1</ele>
        <time>2017-09-11T14:49:52Z</time>
      </trkpt>
      <trkpt lat="47.27353" lon="-1.53405">
        <ele>2.9</ele>
        <time>2017-09-11T14:50:02Z</time>
      </trkpt>
      <trkpt lat="47.27354" lon="-1.53418">
        <ele>3.3</ele>
        <time>2017-09-11T14:50:11Z</time>
      </trkpt>
      <trkpt lat="47.2736" lon="-1.53428">
        <ele>3.8</ele>
        <time>2017-09-11T14:50:22Z</time>
      </trkpt>
      <trkpt lat="47.27368" lon="-1.53435">
        <ele>4.2</ele>
        <time>2017-09-11T14:50:32Z</time>
      </trkpt>
      <trkpt lat="47.27374" lon="-1.53445">
        <ele>4.7</ele>
        <time>2017-09-11T14:50:42Z</time>
      </trkpt>
      <trkpt lat="47.2738" lon="-1.53456">
        <ele>5</ele>
        <time>2017-09-11T14:50:51Z</time>
      </trkpt>
      <trkpt lat="47.27389" lon="-1.53462">
        <ele>5.7</ele>
        <time>2017-09-11T14:51:00Z</time>
      </trkpt>
      <trkpt lat="47.27395" lon="-1.53472">
        <ele>6.2</ele>
        <time>2017-09-11T14:51:10Z</time>
      </trkpt>
      <trkpt lat="47.27402" lon="-1.53483">
        <ele>6.7</ele>
        <time>2017-09-11T14:51:19Z</time>
      </trkpt>
      <trkpt lat="47.27409" lon="-1.53492">
        <ele>7.1</ele>
        <time>2017-09-11T14:51:26Z</time>
      </trkpt>
      <trkpt lat="47.27417" lon="-1.53499">
        <ele>7.8</ele>
        <time>2017-09-11T14:51:34Z</time>
      </trkpt>
      <trkpt lat="47.27426" lon="-1.53505">
        <ele>8.1</ele>
        <time>2017-09-11T14:51:41Z</time>
      </trkpt>
      <trkpt lat="47.27435" lon="-1.53512">
        <ele>8.3</ele>
        <time>2017-09-11T14:51:50Z</time>
      </trkpt>
      <trkpt lat="47.27441" lon="-1.53523">
        <ele>8.9</ele>
        <time>2017-09-11T14:51:59Z</time>
      </trkpt>
      <trkpt lat="47.27443" lon="-1.53536">
        <ele>9.8</ele>
        <time>2017-09-11T14:52:07Z</time>
      </trkpt>
      <trkpt lat="47.27444" lon="-1.5355">
        <ele>10.9</ele>
        <time>2017-09-11T14:52:17Z</time>
      </trkpt>
      <trkpt lat="47.27443" lon="-1.53564">
        <ele>11.5</ele>
        <time>2017-09-11T14:52:26Z</time>
      </trkpt>
      <trkpt lat="47.27443" lon="-1.53578">
        <ele>11.9</ele>
        <time>2017-09-11T14:52:35Z</time>
      </trkpt>
      <trkpt lat="47.27444" lon="-1.53592">
        <ele>12.4</ele>
        <time>2017-09-11T14:52:44Z</time>
      </trkpt>
      <trkpt lat="47.27442" lon="-1.53605">
        <ele>12.9</ele>
        <time>2017-09-11T14:52:52Z</time>
      </trkpt>
      <trkpt lat="47.27442" lon="-1.53619">
        <ele>13.7</ele>
        <time>2017-09-11T14:53:00Z</time>
      </trkpt>
      <trkpt lat="47.27447" lon="-1.53631">
        <ele>14.2</ele>
        <time>2017-09-11T14:53:11Z</time>
      </trkpt>
      <trkpt lat="47.27451" lon="-1.53643">
        <ele>14.6</ele>
        <time>2017-09-11T14:53:22Z</time>
      </trkpt>
      <trkpt lat="47.27455" lon="-1.53655">
        <ele>15.2</ele>
        <time>2017-09-11T14:53:32Z</time>
      </trkpt>
      <trkpt lat="47.27456" lon="-1.53668">
        <ele>16</ele>
        <time>2017-09-11T14:53:43Z</time>
      </trkpt>
      <trkpt lat="47.27452" lon="-1.5368">
        <ele>16.4</ele>
        <time>2017-09-11T14:53:52Z</time>
      </trkpt>
      <trkpt lat="47.27444" lon="-1.5369">
        <ele>16.6</ele>
        <time>2017-09-11T14:53:59Z</time>
      </trkpt>
      <trkpt lat="47.27436" lon="-1.53698">
        <ele>16.7</ele>
        <time>2017-09-11T14:54:06Z</time>
      </trkpt>
      <trkpt lat="47.27427" lon="-1.53705">
        <ele>16.7</ele>
        <time>2017-09-11T14:54:14Z</time>
      </trkpt>
      <trkpt lat="47.27418" lon="-1.53711">
        <ele>16.7</ele>
        <time>2017-09-11T14:54:21Z</time>
      </trkpt>
      <trkpt lat="47.27409" lon="-1.53716">
        <ele>16.7</ele>
        <time>2017-09-11T14:54:27Z</time>
      </trkpt>
      <trkpt lat="47.27401" lon="-1.53723">
        <ele>16.4</ele>
        <time>2017-09-11T14:54:34Z</time>
      </trkpt>
      <trkpt lat="47.27393" lon="-1.53728">
        <ele>16.1</ele>
        <time>2017-09-11T14:54:41Z</time>
      </trkpt>
      <trkpt lat="47.27385" lon="-1.53736">
        <ele>15.9</ele>
        <time>2017-09-11T14:54:50Z</time>
      </trkpt>
      <trkpt lat="47.27376" lon="-1.53744">
        <ele>14.9</ele>
        <time>2017-09-11T14:54:58Z</time>
      </trkpt>
      <trkpt lat="47.27367" lon="-1.53748">
        <ele>14.2</ele>
        <time>2017-09-11T14:55:06Z</time>
      </trkpt>
      <trkpt lat="47.27359" lon="-1.53755">
        <ele>13.8</ele>
        <time>2017-09-11T14:55:13Z</time>
      </trkpt>
      <trkpt lat="47.2735" lon="-1.53762">
        <ele>12.8</ele>
        <time>2017-09-11T14:55:22Z</time>
      </trkpt>
      <trkpt lat="47.27341" lon="-1.53768">
        <ele>12.3</ele>
        <time>2017-09-11T14:55:30Z</time>
      </trkpt>
      <trkpt lat="47.27332" lon="-1.53773">
        <ele>11.9</ele>
        <time>2017-09-11T14:55:39Z</time>
      </trkpt>
      <trkpt lat="47.27324" lon="-1.5378">
        <ele>11.8</ele>
        <time>2017-09-11T14:55:46Z</time>
      </trkpt>
      <trkpt lat="47.27314" lon="-1.53784">
        <ele>11.7</ele>
        <time>2017-09-11T14:55:54Z</time>
      </trkpt>
      <trkpt lat="47.27305" lon="-1.53785">
        <ele>11.7</ele>
        <time>2017-09-11T14:56:00Z</time>
      </trkpt>
      <trkpt lat="47.27295" lon="-1.53785">
        <ele>11.7</ele>
        <time>2017-09-11T14:56:07Z</time>
      </trkpt>
      <trkpt lat="47.27287" lon="-1.5378">
        <ele>11.7</ele>
        <time>2017-09-11T14:56:14Z</time>
      </trkpt>
      <trkpt lat="47.27279" lon="-1.53772">
        <ele>11.8</ele>
        <time>2017-09-11T14:56:21Z</time>
      </trkpt>
      <trkpt lat="47.27272" lon="-1.53762">
        <ele>11.5</ele>
        <time>2017-09-11T14:56:29Z</time>
      </trkpt>
      <trkpt lat="47.27265" lon="-1.53751">
        <ele>11.2</ele>
        <time>2017-09-11T14:56:37Z</time>
      </trkpt>
      <trkpt lat="47.2726" lon="-1.53741">
        <ele>11</ele>
        <time>2017-09-11T14:56:44Z</time>
      </trkpt>
      <trkpt lat="47.27254" lon="-1.5373">
        <ele>10.9</ele>
        <time>2017-09-11T14:56:51Z</time>
      </trkpt>
      <trkpt lat="47.27248" lon="-1.53718">
        <ele>10.8</ele>
        <time>2017-09-11T14:56:59Z</time>
      </trkpt>
      <trkpt lat="47.27242" lon="-1.53706">
        <ele>10.6</ele>
        <time>2017-09-11T14:57:07Z</time>
      </trkpt>
      <trkpt lat="47.27236" lon="-1.53696">
        <ele>10.4</ele>
        <time>2017-09-11T14:57:15Z</time>
      </trkpt>
      <trkpt lat="47.27229" lon="-1.53687">
        <ele>10.3</ele>
        <time>2017-09-11T14:57:22Z</time>
      </trkpt>
      <trkpt lat="47.2722" lon="-1.53691">
        <ele>9.6</ele>
        <time>2017-09-11T14:57:32Z</time>
      </trkpt>
      <trkpt lat="47.27211" lon="-1.53698">
        <ele>9.1</ele>
        <time>2017-09-11T14:57:42Z</time>
      </trkpt>
      <trkpt lat="47.27204" lon="-1.53706">
        <ele>8.8</ele>
        <time>2017-09-11T14:57:51Z</time>
      </trkpt>
      <trkpt lat="47.27195" lon="-1.53712">
        <ele>8.7</ele>
        <time>2017-09-11T14:58:00Z</time>
      </trkpt>
      <trkpt lat="47.27186" lon="-1.53719">
        <ele>8.6</ele>
        <time>2017-09-11T14:58:08Z</time>
      </trkpt>
      <trkpt lat="47.27179" lon="-1.53727">
        <ele>8.3</ele>
        <time>2017-09-11T14:58:15Z</time>
      </trkpt>
      <trkpt lat="47.27171" lon="-1.53734">
        <ele>8.3</ele>
        <time>2017-09-11T14:58:22Z</time>
      </trkpt>
      <trkpt lat="47.27163" lon="-1.53742">
        <ele>7.8</ele>
        <time>2017-09-11T14:58:29Z</time>
      </trkpt>
      <trkpt lat="47.27155" lon="-1.53751">
        <ele>7.1</ele>
        <time>2017-09-11T14:58:36Z</time>
      </trkpt>
      <trkpt lat="47.27148" lon="-1.53758">
        <ele>6.5</ele>
        <time>2017-09-11T14:58:44Z</time>
      </trkpt>
      <trkpt lat="47.2714" lon="-1.53766">
        <ele>6.2</ele>
        <time>2017-09-11T14:58:51Z</time>
      </trkpt>
      <trkpt lat="47.27133" lon="-1.53774">
        <ele>6</ele>
        <time>2017-09-11T14:58:59Z</time>
      </trkpt>
      <trkpt lat="47.27125" lon="-1.53783">
        <ele>5.9</ele>
        <time>2017-09-11T14:59:07Z</time>
      </trkpt>
      <trkpt lat="47.27117" lon="-1.53792">
        <ele>5.7</ele>
        <time>2017-09-11T14:59:16Z</time>
      </trkpt>
      <trkpt lat="47.27109" lon="-1.538">
        <ele>5.6</ele>
        <time>2017-09-11T14:59:24Z</time>
      </trkpt>
      <trkpt lat="47.27101" lon="-1.53808">
        <ele>5.6</ele>
        <time>2017-09-11T14:59:32Z</time>
      </trkpt>
      <trkpt lat="47.27093" lon="-1.53815">
        <ele>5.5</ele>
        <time>2017-09-11T14:59:39Z</time>
      </trkpt>
      <trkpt lat="47.27085" lon="-1.53822">
        <ele>5.1</ele>
        <time>2017-09-11T14:59:47Z</time>
      </trkpt>
      <trkpt lat="47.27079" lon="-1.53832">
        <ele>4.6</ele>
        <time>2017-09-11T14:59:55Z</time>
      </trkpt>
      <trkpt lat="47.27072" lon="-1.5384">
        <ele>4.4</ele>
        <time>2017-09-11T15:00:03Z</time>
      </trkpt>
      <trkpt lat="47.27064" lon="-1.5385">
        <ele>4.1</ele>
        <time>2017-09-11T15:00:11Z</time>
      </trkpt>
      <trkpt lat="47.27057" lon="-1.53861">
        <ele>3.7</ele>
        <time>2017-09-11T15:00:19Z</time>
      </trkpt>
      <trkpt lat="47.27051" lon="-1.53871">
        <ele>3.4</ele>
        <time>2017-09-11T15:00:27Z</time>
      </trkpt>
      <trkpt lat="47.27044" lon="-1.5388">
        <ele>2.7</ele>
        <time>2017-09-11T15:00:36Z</time>
      </trkpt>
      <trkpt lat="47.27038" lon="-1.5389">
        <ele>1.9</ele>
        <time>2017-09-11T15:00:45Z</time>
      </trkpt>
      <trkpt lat="47.27031" lon="-1.539">
        <ele>1.3</ele>
        <time>2017-09-11T15:00:54Z</time>
      </trkpt>
      <trkpt lat="47.27026" lon="-1.5391">
        <ele>0.8</ele>
        <time>2017-09-11T15:01:02Z</time>
      </trkpt>
      <trkpt lat="47.2702" lon="-1.53921">
        <ele>0.6</ele>
        <time>2017-09-11T15:01:10Z</time>
      </trkpt>
      <trkpt lat="47.27014" lon="-1.53931">
        <ele>0.4</ele>
        <time>2017-09-11T15:01:18Z</time>
      </trkpt>
      <trkpt lat="47.27008" lon="-1.53941">
        <ele>0.4</ele>
        <time>2017-09-11T15:01:25Z</time>
      </trkpt>
      <trkpt lat="47.27" lon="-1.53949">
        <ele>1</ele>
        <time>2017-09-11T15:01:34Z</time>
      </trkpt>
      <trkpt lat="47.2699" lon="-1.53955">
        <ele>1.9</ele>
        <time>2017-09-11T15:01:43Z</time>
      </trkpt>
      <trkpt lat="47.26982" lon="-1.53959">
        <ele>2.5</ele>
        <time>2017-09-11T15:01:51Z</time>
      </trkpt>
      <trkpt lat="47.26973" lon="-1.53964">
        <ele>2.8</ele>
        <time>2017-09-11T15:02:00Z</time>
      </trkpt>
      <trkpt lat="47.26964" lon="-1.53966">
        <ele>3</ele>
        <time>2017-09-11T15:02:08Z</time>
      </trkpt>
      <trkpt lat="47.26955" lon="-1.5397">
        <ele>3.5</ele>
        <time>2017-09-11T15:02:16Z</time>
      </trkpt>
      <trkpt lat="47.26946" lon="-1.53971">
        <ele>4.2</ele>
        <time>2017-09-11T15:02:23Z</time>
      </trkpt>
      <trkpt lat="47.26936" lon="-1.53972">
        <ele>4.7</ele>
        <time>2017-09-11T15:02:31Z</time>
      </trkpt>
      <trkpt lat="47.26926" lon="-1.53972">
        <ele>5.2</ele>
        <time>2017-09-11T15:02:39Z</time>
      </trkpt>
      <trkpt lat="47.26917" lon="-1.53976">
        <ele>5.5</ele>
        <time>2017-09-11T15:02:47Z</time>
      </trkpt>
      <trkpt lat="47.26907" lon="-1.53979">
        <ele>5.4</ele>
        <time>2017-09-11T15:02:56Z</time>
      </trkpt>
      <trkpt lat="47.26898" lon="-1.53982">
        <ele>5.4</ele>
        <time>2017-09-11T15:03:04Z</time>
      </trkpt>
      <trkpt lat="47.26889" lon="-1.53987">
        <ele>5.8</ele>
        <time>2017-09-11T15:03:12Z</time>
      </trkpt>
      <trkpt lat="47.2688" lon="-1.53989">
        <ele>5.7</ele>
        <time>2017-09-11T15:03:21Z</time>
      </trkpt>
      <trkpt lat="47.26871" lon="-1.53996">
        <ele>5.8</ele>
        <time>2017-09-11T15:03:30Z</time>
      </trkpt>
      <trkpt lat="47.26864" lon="-1.54003">
        <ele>5.8</ele>
        <time>2017-09-11T15:03:38Z</time>
      </trkpt>
      <trkpt lat="47.26856" lon="-1.54011">
        <ele>5.6</ele>
        <time>2017-09-11T15:03:47Z</time>
      </trkpt>
      <trkpt lat="47.26847" lon="-1.54019">
        <ele>5.5</ele>
        <time>2017-09-11T15:03:55Z</time>
      </trkpt>
      <trkpt lat="47.26839" lon="-1.54027">
        <ele>5.4</ele>
        <time>2017-09-11T15:04:02Z</time>
      </trkpt>
      <trkpt lat="47.26831" lon="-1.54034">
        <ele>5.4</ele>
        <time>2017-09-11T15:04:09Z</time>
      </trkpt>
      <trkpt lat="47.26823" lon="-1.54043">
        <ele>5.4</ele>
        <time>2017-09-11T15:04:17Z</time>
      </trkpt>
      <trkpt lat="47.26815" lon="-1.5405">
        <ele>5.4</ele>
        <time>2017-09-11T15:04:25Z</time>
      </trkpt>
      <trkpt lat="47.26807" lon="-1.54057">
        <ele>5.7</ele>
        <time>2017-09-11T15:04:33Z</time>
      </trkpt>
      <trkpt lat="47.26798" lon="-1.54064">
        <ele>6.1</ele>
        <time>2017-09-11T15:04:42Z</time>
      </trkpt>
      <trkpt lat="47.2679" lon="-1.54073">
        <ele>6.4</ele>
        <time>2017-09-11T15:04:52Z</time>
      </trkpt>
      <trkpt lat="47.26782" lon="-1.5408">
        <ele>6.6</ele>
        <time>2017-09-11T15:05:00Z</time>
      </trkpt>
      <trkpt lat="47.26774" lon="-1.54088">
        <ele>6.8</ele>
        <time>2017-09-11T15:05:08Z</time>
      </trkpt>
      <trkpt lat="47.26767" lon="-1.54099">
        <ele>7.1</ele>
        <time>2017-09-11T15:05:16Z</time>
      </trkpt>
      <trkpt lat="47.26759" lon="-1.54106">
        <ele>7.6</ele>
        <time>2017-09-11T15:05:24Z</time>
      </trkpt>
      <trkpt lat="47.26751" lon="-1.54114">
        <ele>7.8</ele>
        <time>2017-09-11T15:05:32Z</time>
      </trkpt>
      <trkpt lat="47.26743" lon="-1.54122">
        <ele>7.9</ele>
        <time>2017-09-11T15:05:39Z</time>
      </trkpt>
      <trkpt lat="47.26736" lon="-1.5413">
        <ele>8.3</ele>
        <time>2017-09-11T15:05:47Z</time>
      </trkpt>
      <trkpt lat="47.26727" lon="-1.54137">
        <ele>8.7</ele>
        <time>2017-09-11T15:05:55Z</time>
      </trkpt>
      <trkpt lat="47.2672" lon="-1.54145">
        <ele>9</ele>
        <time>2017-09-11T15:06:04Z</time>
      </trkpt>
      <trkpt lat="47.26712" lon="-1.54152">
        <ele>9.2</ele>
        <time>2017-09-11T15:06:11Z</time>
      </trkpt>
      <trkpt lat="47.26704" lon="-1.54161">
        <ele>9.2</ele>
        <time>2017-09-11T15:06:19Z</time>
      </trkpt>
      <trkpt lat="47.26695" lon="-1.54168">
        <ele>8.9</ele>
        <time>2017-09-11T15:06:27Z</time>
      </trkpt>
      <trkpt lat="47.26687" lon="-1.54174">
        <ele>9.1</ele>
        <time>2017-09-11T15:06:35Z</time>
      </trkpt>
      <trkpt lat="47.26678" lon="-1.5418">
        <ele>9.4</ele>
        <time>2017-09-11T15:06:43Z</time>
      </trkpt>
      <trkpt lat="47.2667" lon="-1.54189">
        <ele>9.7</ele>
        <time>2017-09-11T15:06:51Z</time>
      </trkpt>
      <trkpt lat="47.26662" lon="-1.54198">
        <ele>10</ele>
        <time>2017-09-11T15:07:00Z</time>
      </trkpt>
      <trkpt lat="47.26657" lon="-1.54209">
        <ele>10.3</ele>
        <time>2017-09-11T15:07:08Z</time>
      </trkpt>
      <trkpt lat="47.26652" lon="-1.54222">
        <ele>10.5</ele>
        <time>2017-09-11T15:07:17Z</time>
      </trkpt>
      <trkpt lat="47.26647" lon="-1.54235">
        <ele>10.7</ele>
        <time>2017-09-11T15:07:24Z</time>
      </trkpt>
      <trkpt lat="47.26642" lon="-1.54247">
        <ele>11.1</ele>
        <time>2017-09-11T15:07:33Z</time>
      </trkpt>
      <trkpt lat="47.26638" lon="-1.54261">
        <ele>11.6</ele>
        <time>2017-09-11T15:07:41Z</time>
      </trkpt>
      <trkpt lat="47.26635" lon="-1.54273">
        <ele>11.9</ele>
        <time>2017-09-11T15:07:49Z</time>
      </trkpt>
      <trkpt lat="47.26632" lon="-1.54286">
        <ele>12.1</ele>
        <time>2017-09-11T15:07:57Z</time>
      </trkpt>
      <trkpt lat="47.26632" lon="-1.54301">
        <ele>12.6</ele>
        <time>2017-09-11T15:08:06Z</time>
      </trkpt>
      <trkpt lat="47.26633" lon="-1.54316">
        <ele>12.9</ele>
        <time>2017-09-11T15:08:14Z</time>
      </trkpt>
      <trkpt lat="47.26635" lon="-1.5433">
        <ele>13.2</ele>
        <time>2017-09-11T15:08:23Z</time>
      </trkpt>
      <trkpt lat="47.26637" lon="-1.54344">
        <ele>13.4</ele>
        <time>2017-09-11T15:08:31Z</time>
      </trkpt>
      <trkpt lat="47.26637" lon="-1.54358">
        <ele>13.8</ele>
        <time>2017-09-11T15:08:40Z</time>
      </trkpt>
      <trkpt lat="47.26631" lon="-1.54368">
        <ele>14.3</ele>
        <time>2017-09-11T15:08:49Z</time>
      </trkpt>
      <trkpt lat="47.26623" lon="-1.54375">
        <ele>14.6</ele>
        <time>2017-09-11T15:08:57Z</time>
      </trkpt>
      <trkpt lat="47.26613" lon="-1.54378">
        <ele>14.8</ele>
        <time>2017-09-11T15:09:05Z</time>
      </trkpt>
      <trkpt lat="47.26604" lon="-1.54381">
        <ele>15.1</ele>
        <time>2017-09-11T15:09:12Z</time>
      </trkpt>
      <trkpt lat="47.26594" lon="-1.54383">
        <ele>15.2</ele>
        <time>2017-09-11T15:09:20Z</time>
      </trkpt>
      <trkpt lat="47.26585" lon="-1.54388">
        <ele>15.3</ele>
        <time>2017-09-11T15:09:28Z</time>
      </trkpt>
      <trkpt lat="47.26581" lon="-1.54401">
        <ele>16.1</ele>
        <time>2017-09-11T15:09:37Z</time>
      </trkpt>
      <trkpt lat="47.26582" lon="-1.54415">
        <ele>17</ele>
        <time>2017-09-11T15:09:46Z</time>
      </trkpt>
      <trkpt lat="47.26583" lon="-1.54429">
        <ele>17.6</ele>
        <time>2017-09-11T15:09:54Z</time>
      </trkpt>
      <trkpt lat="47.26586" lon="-1.54443">
        <ele>18</ele>
        <time>2017-09-11T15:10:01Z</time>
      </trkpt>
      <trkpt lat="47.2659" lon="-1.54455">
        <ele>18.2</ele>
        <time>2017-09-11T15:10:08Z</time>
      </trkpt>
      <trkpt lat="47.26596" lon="-1.54466">
        <ele>18.1</ele>
        <time>2017-09-11T15:10:16Z</time>
      </trkpt>
      <trkpt lat="47.26606" lon="-1.54468">
        <ele>18.2</ele>
        <time>2017-09-11T15:10:25Z</time>
      </trkpt>
      <trkpt lat="47.26616" lon="-1.54464">
        <ele>18.1</ele>
        <time>2017-09-11T15:10:36Z</time>
      </trkpt>
      <trkpt lat="47.26624" lon="-1.54459">
        <ele>18.6</ele>
        <time>2017-09-11T15:10:44Z</time>
      </trkpt>
      <trkpt lat="47.26633" lon="-1.54455">
        <ele>18.7</ele>
        <time>2017-09-11T15:10:52Z</time>
      </trkpt>
      <trkpt lat="47.26643" lon="-1.54453">
        <ele>18.7</ele>
        <time>2017-09-11T15:11:00Z</time>
      </trkpt>
      <trkpt lat="47.26652" lon="-1.54451">
        <ele>19.3</ele>
        <time>2017-09-11T15:11:23Z</time>
      </trkpt>
      <trkpt lat="47.26661" lon="-1.54451">
        <ele>18.9</ele>
        <time>2017-09-11T15:11:37Z</time>
      </trkpt>
      <trkpt lat="47.26671" lon="-1.54452">
        <ele>18.7</ele>
        <time>2017-09-11T15:11:45Z</time>
      </trkpt>
      <trkpt lat="47.2668" lon="-1.54453">
        <ele>19.2</ele>
        <time>2017-09-11T15:11:53Z</time>
      </trkpt>
      <trkpt lat="47.26689" lon="-1.54456">
        <ele>19.5</ele>
        <time>2017-09-11T15:12:03Z</time>
      </trkpt>
      <trkpt lat="47.26699" lon="-1.54458">
        <ele>19.6</ele>
        <time>2017-09-11T15:12:10Z</time>
      </trkpt>
      <trkpt lat="47.26708" lon="-1.5446">
        <ele>19.7</ele>
        <time>2017-09-11T15:12:17Z</time>
      </trkpt>
      <trkpt lat="47.26718" lon="-1.54464">
        <ele>19.7</ele>
        <time>2017-09-11T15:12:25Z</time>
      </trkpt>
      <trkpt lat="47.26728" lon="-1.54467">
        <ele>19.8</ele>
        <time>2017-09-11T15:12:33Z</time>
      </trkpt>
      <trkpt lat="47.26737" lon="-1.5447">
        <ele>19.8</ele>
        <time>2017-09-11T15:12:40Z</time>
      </trkpt>
      <trkpt lat="47.26746" lon="-1.54477">
        <ele>20</ele>
        <time>2017-09-11T15:12:47Z</time>
      </trkpt>
      <trkpt lat="47.26752" lon="-1.54487">
        <ele>20.3</ele>
        <time>2017-09-11T15:12:54Z</time>
      </trkpt>
      <trkpt lat="47.26758" lon="-1.54499">
        <ele>21.2</ele>
        <time>2017-09-11T15:13:02Z</time>
      </trkpt>
      <trkpt lat="47.26762" lon="-1.54512">
        <ele>21.2</ele>
        <time>2017-09-11T15:13:10Z</time>
      </trkpt>
      <trkpt lat="47.26767" lon="-1.54523">
        <ele>21.2</ele>
        <time>2017-09-11T15:13:18Z</time>
      </trkpt>
      <trkpt lat="47.26772" lon="-1.54536">
        <ele>21.2</ele>
        <time>2017-09-11T15:13:27Z</time>
      </trkpt>
      <trkpt lat="47.26767" lon="-1.54547">
        <ele>21.4</ele>
        <time>2017-09-11T15:13:36Z</time>
      </trkpt>
      <trkpt lat="47.26758" lon="-1.54554">
        <ele>21.9</ele>
        <time>2017-09-11T15:13:44Z</time>
      </trkpt>
      <trkpt lat="47.26749" lon="-1.54562">
        <ele>22.2</ele>
        <time>2017-09-11T15:13:52Z</time>
      </trkpt>
      <trkpt lat="47.26744" lon="-1.54575">
        <ele>22.4</ele>
        <time>2017-09-11T15:14:02Z</time>
      </trkpt>
      <trkpt lat="47.26745" lon="-1.54589">
        <ele>22.3</ele>
        <time>2017-09-11T15:14:13Z</time>
      </trkpt>
      <trkpt lat="47.26741" lon="-1.54601">
        <ele>22.3</ele>
        <time>2017-09-11T15:14:21Z</time>
      </trkpt>
      <trkpt lat="47.26732" lon="-1.54608">
        <ele>22.2</ele>
        <time>2017-09-11T15:14:29Z</time>
      </trkpt>
      <trkpt lat="47.26726" lon="-1.54618">
        <ele>22.2</ele>
        <time>2017-09-11T15:14:40Z</time>
      </trkpt>
      <trkpt lat="47.26724" lon="-1.54632">
        <ele>22.1</ele>
        <time>2017-09-11T15:14:49Z</time>
      </trkpt>
      <trkpt lat="47.26723" lon="-1.54647">
        <ele>22</ele>
        <time>2017-09-11T15:14:57Z</time>
      </trkpt>
      <trkpt lat="47.26722" lon="-1.5466">
        <ele>22</ele>
        <time>2017-09-11T15:15:05Z</time>
      </trkpt>
      <trkpt lat="47.2672" lon="-1.54673">
        <ele>21.9</ele>
        <time>2017-09-11T15:15:13Z</time>
      </trkpt>
      <trkpt lat="47.26715" lon="-1.54685">
        <ele>21.8</ele>
        <time>2017-09-11T15:15:21Z</time>
      </trkpt>
      <trkpt lat="47.2671" lon="-1.54697">
        <ele>21.1</ele>
        <time>2017-09-11T15:15:30Z</time>
      </trkpt>
      <trkpt lat="47.26704" lon="-1.54708">
        <ele>20.7</ele>
        <time>2017-09-11T15:15:37Z</time>
      </trkpt>
      <trkpt lat="47.26697" lon="-1.54717">
        <ele>20.4</ele>
        <time>2017-09-11T15:15:45Z</time>
      </trkpt>
      <trkpt lat="47.26687" lon="-1.5472">
        <ele>20</ele>
        <time>2017-09-11T15:15:56Z</time>
      </trkpt>
      <trkpt lat="47.26678" lon="-1.54726">
        <ele>19</ele>
        <time>2017-09-11T15:16:04Z</time>
      </trkpt>
      <trkpt lat="47.26672" lon="-1.54735">
        <ele>17.7</ele>
        <time>2017-09-11T15:16:13Z</time>
      </trkpt>
      <trkpt lat="47.26665" lon="-1.54747">
        <ele>17.1</ele>
        <time>2017-09-11T15:16:22Z</time>
      </trkpt>
      <trkpt lat="47.26659" lon="-1.54758">
        <ele>16.8</ele>
        <time>2017-09-11T15:16:31Z</time>
      </trkpt>
      <trkpt lat="47.26658" lon="-1.54772">
        <ele>16.4</ele>
        <time>2017-09-11T15:16:39Z</time>
      </trkpt>
      <trkpt lat="47.26663" lon="-1.54784">
        <ele>15.7</ele>
        <time>2017-09-11T15:16:47Z</time>
      </trkpt>
      <trkpt lat="47.2667" lon="-1.54794">
        <ele>15</ele>
        <time>2017-09-11T15:16:55Z</time>
      </trkpt>
      <trkpt lat="47.26675" lon="-1.54805">
        <ele>14.3</ele>
        <time>2017-09-11T15:17:04Z</time>
      </trkpt>
      <trkpt lat="47.26678" lon="-1.54818">
        <ele>14</ele>
        <time>2017-09-11T15:17:17Z</time>
      </trkpt>
      <trkpt lat="47.26678" lon="-1.54832">
        <ele>14.4</ele>
        <time>2017-09-11T15:17:35Z</time>
      </trkpt>
      <trkpt lat="47.26678" lon="-1.54833">
        <ele>14.5</ele>
        <time>2017-09-11T15:17:39Z</time>
      </trkpt>
    </trkseg>
  </trk>
</gpx>